Observation data for Fort Chadbourne on 12/10/2018      Previous  Date       Current Mesonet Observations  Soil Data  Daily Summary Page  Observations in Plain Language
KCH1 100600Z 32003KT M02/M03 A3039 RMK A01 T10201034  RH  090%=      5-min Rain = 0
KCH1 100601Z 32003KT M02/M03 A3039 RMK A01 T10201034  RH  090%=      5-min Rain = 0
KCH1 100602Z 32004KT M02/M03 A3039 RMK A01 T10201034  RH  090%=      5-min Rain = 0
KCH1 100603Z 31004KT M02/M03 A3039 RMK A01 T10191033  RH  090%=      5-min Rain = 0
KCH1 100604Z 31004KT M02/M03 A3039 RMK A01 T10191033  RH  090%=      5-min Rain = 0
KCH1 100605Z 32004KT M02/M03 A3039 RMK A01 T10181032  RH  090%=      5-min Rain = 0
KCH1 100606Z 31004KT M02/M03 A3039 RMK A01 T10171031  RH  090%=      5-min Rain = 0
KCH1 100607Z 31004KT M02/M03 A3039 RMK A01 T10161032  RH  089%=      5-min Rain = 0
KCH1 100608Z 31004KT M02/M03 A3039 RMK A01 T10151031  RH  089%=      5-min Rain = 0
KCH1 100609Z 30004KT M01/M03 A3038 RMK A01 T10141031  RH  089%=      5-min Rain = 0
KCH1 100610Z 30004KT M01/M03 A3038 RMK A01 T10141030  RH  089%=      5-min Rain = 0
KCH1 100611Z 30004KT M01/M03 A3038 RMK A01 T10121029  RH  088%=      5-min Rain = 0
KCH1 100612Z 31005KT M01/M03 A3038 RMK A01 T10111029  RH  088%=      5-min Rain = 0
KCH1 100613Z 31005KT M01/M03 A3039 RMK A01 T10101028  RH  087%=      5-min Rain = 0
KCH1 100614Z 31005KT M01/M03 A3039 RMK A01 T10101029  RH  087%=      5-min Rain = 0
KCH1 100615Z 31005KT M01/M03 A3039 RMK A01 T10101029  RH  087%=      5-min Rain = 0
KCH1 100616Z 31005KT M01/M03 A3038 RMK A01 T10101029  RH  087%=      5-min Rain = 0
KCH1 100617Z 31005KT M01/M03 A3038 RMK A01 T10101029  RH  086%=      5-min Rain = 0
KCH1 100618Z 31005KT M01/M03 A3038 RMK A01 T10091029  RH  086%=      5-min Rain = 0
KCH1 100619Z 32005KT M01/M03 A3039 RMK A01 T10091029  RH  086%=      5-min Rain = 0
KCH1 100620Z 32004KT M01/M03 A3039 RMK A01 T10081029  RH  086%=      5-min Rain = 0
KCH1 100621Z 32004KT M01/M03 A3039 RMK A01 T10081029  RH  086%=      5-min Rain = 0
KCH1 100622Z 32003KT M01/M03 A3039 RMK A01 T10081029  RH  086%=      5-min Rain = 0
KCH1 100623Z 33003KT M01/M03 A3039 RMK A01 T10091030  RH  086%=      5-min Rain = 0
KCH1 100624Z 33002KT M01/M04 A3039 RMK A01 T10141038  RH  083%=      5-min Rain = 0
KCH1 100625Z 33002KT M02/M04 A3039 RMK A01 T10181043  RH  083%=      5-min Rain = 0
KCH1 100626Z 32002KT M02/M04 A3039 RMK A01 T10211043  RH  085%=      5-min Rain = 0
KCH1 100627Z 31002KT M02/M04 A3039 RMK A01 T10231042  RH  086%=      5-min Rain = 0
KCH1 100628Z 32003KT M02/M04 A3039 RMK A01 T10231040  RH  088%=      5-min Rain = 0
KCH1 100629Z 32003KT M02/M04 A3039 RMK A01 T10231039  RH  089%=      5-min Rain = 0
KCH1 100630Z 32003KT M02/M04 A3039 RMK A01 T10221037  RH  089%=      5-min Rain = 0
KCH1 100631Z 32003KT M02/M04 A3039 RMK A01 T10221036  RH  090%=      5-min Rain = 0
KCH1 100632Z 32003KT M02/M04 A3039 RMK A01 T10211036  RH  089%=      5-min Rain = 0
KCH1 100633Z 33004KT M02/M04 A3039 RMK A01 T10211037  RH  089%=      5-min Rain = 0
KCH1 100634Z 33004KT M02/M04 A3039 RMK A01 T10221038  RH  089%=      5-min Rain = 0
KCH1 100635Z 33003KT M02/M04 A3039 RMK A01 T10231039  RH  088%=      5-min Rain = 0
KCH1 100636Z 33003KT M02/M04 A3039 RMK A01 T10231040  RH  088%=      5-min Rain = 0
KCH1 100637Z 33003KT M02/M04 A3038 RMK A01 T10241040  RH  088%=      5-min Rain = 0
KCH1 100638Z 32003KT M02/M04 A3038 RMK A01 T10231039  RH  089%=      5-min Rain = 0
KCH1 100639Z 31003KT M02/M04 A3038 RMK A01 T10231039  RH  089%=      5-min Rain = 0
KCH1 100640Z 31003KT M02/M04 A3038 RMK A01 T10231038  RH  089%=      5-min Rain = 0
KCH1 100641Z 31003KT M02/M04 A3038 RMK A01 T10211036  RH  090%=      5-min Rain = 0
KCH1 100642Z 31003KT M02/M04 A3038 RMK A01 T10201035  RH  089%=      5-min Rain = 0
KCH1 100643Z 31003KT M02/M03 A3038 RMK A01 T10181034  RH  089%=      5-min Rain = 0
KCH1 100644Z 31003KT M02/M03 A3038 RMK A01 T10171034  RH  088%=      5-min Rain = 0
KCH1 100645Z 31004KT M02/M03 A3038 RMK A01 T10161034  RH  088%=      5-min Rain = 0
KCH1 100646Z 31004KT M02/M03 A3038 RMK A01 T10151034  RH  087%=      5-min Rain = 0
KCH1 100647Z 31004KT M02/M04 A3038 RMK A01 T10151035  RH  086%=      5-min Rain = 0
KCH1 100648Z 32004KT M02/M04 A3038 RMK A01 T10151035  RH  086%=      5-min Rain = 0
KCH1 100649Z 31004KT M02/M04 A3038 RMK A01 T10151035  RH  086%=      5-min Rain = 0
KCH1 100650Z 31004KT M02/M04 A3038 RMK A01 T10151036  RH  086%=      5-min Rain = 0
KCH1 100651Z 31004KT M01/M04 A3038 RMK A01 T10141035  RH  086%=      5-min Rain = 0
KCH1 100652Z 31004KT M01/M04 A3038 RMK A01 T10141035  RH  086%=      5-min Rain = 0
KCH1 100653Z 31004KT M01/M04 A3038 RMK A01 T10141035  RH  086%=      5-min Rain = 0
KCH1 100654Z 31004KT M01/M04 A3038 RMK A01 T10141036  RH  085%=      5-min Rain = 0
KCH1 100655Z 31004KT M01/M04 A3038 RMK A01 T10141036  RH  085%=      5-min Rain = 0
KCH1 100656Z 31005KT M01/M04 A3038 RMK A01 T10131035  RH  085%=      5-min Rain = 0
KCH1 100657Z 31005KT M01/M04 A3038 RMK A01 T10141036  RH  085%=      5-min Rain = 0
KCH1 100658Z 30005KT M01/M04 A3038 RMK A01 T10131037  RH  084%=      5-min Rain = 0
KCH1 100659Z 30005KT M01/M04 A3038 RMK A01 T10131036  RH  085%=      5-min Rain = 0
KCH1 100700Z 30005KT M01/M04 A3038 RMK A01 T10131036  RH  085%=      5-min Rain = 0
KCH1 100701Z 30005KT M01/M04 A3038 RMK A01 T10141036  RH  085%=      5-min Rain = 0
KCH1 100702Z 30005KT M01/M04 A3038 RMK A01 T10141036  RH  085%=      5-min Rain = 0
KCH1 100703Z 30005KT M01/M04 A3038 RMK A01 T10141035  RH  085%=      5-min Rain = 0
KCH1 100704Z 30005KT M01/M04 A3038 RMK A01 T10141035  RH  085%=      5-min Rain = 0
KCH1 100705Z 30005KT M01/M04 A3038 RMK A01 T10141035  RH  085%=      5-min Rain = 0
KCH1 100706Z 30005KT M01/M04 A3038 RMK A01 T10141035  RH  086%=      5-min Rain = 0
KCH1 100707Z 30004KT M01/M03 A3038 RMK A01 T10141033  RH  086%=      5-min Rain = 0
KCH1 100708Z 31004KT M01/M03 A3038 RMK A01 T10141033  RH  086%=      5-min Rain = 0
KCH1 100709Z 31004KT M01/M03 A3038 RMK A01 T10131032  RH  087%=      5-min Rain = 0
KCH1 100710Z 31003KT M01/M03 A3038 RMK A01 T10131032  RH  087%=      5-min Rain = 0
KCH1 100711Z 31004KT M01/M03 A3038 RMK A01 T10131033  RH  087%=      5-min Rain = 0
KCH1 100712Z 31003KT M01/M03 A3038 RMK A01 T10141033  RH  087%=      5-min Rain = 0
KCH1 100713Z 31003KT M01/M03 A3038 RMK A01 T10141032  RH  087%=      5-min Rain = 0
KCH1 100714Z 31003KT M01/M03 A3038 RMK A01 T10141033  RH  087%=      5-min Rain = 0
KCH1 100715Z 30003KT M02/M03 A3038 RMK A01 T10151032  RH  088%=      5-min Rain = 0
KCH1 100716Z 30004KT M02/M03 A3038 RMK A01 T10151032  RH  088%=      5-min Rain = 0
KCH1 100717Z 30003KT M02/M03 A3038 RMK A01 T10151032  RH  088%=      5-min Rain = 0
KCH1 100718Z 30003KT M02/M03 A3038 RMK A01 T10151032  RH  088%=      5-min Rain = 0
KCH1 100719Z 31002KT M02/M03 A3038 RMK A01 T10151032  RH  088%=      5-min Rain = 0
KCH1 100720Z 31002KT M02/M03 A3038 RMK A01 T10151032  RH  088%=      5-min Rain = 0
KCH1 100721Z 31002KT M02/M03 A3038 RMK A01 T10161032  RH  089%=      5-min Rain = 0
KCH1 100722Z 31002KT M02/M03 A3038 RMK A01 T10161032  RH  089%=      5-min Rain = 0
KCH1 100723Z 30003KT M02/M03 A3038 RMK A01 T10161031  RH  089%=      5-min Rain = 0
KCH1 100724Z 30003KT M02/M03 A3038 RMK A01 T10161030  RH  090%=      5-min Rain = 0
KCH1 100725Z 30003KT M02/M03 A3038 RMK A01 T10151030  RH  090%=      5-min Rain = 0
KCH1 100726Z 30003KT M02/M03 A3038 RMK A01 T10151030  RH  090%=      5-min Rain = 0
KCH1 100727Z 29003KT M02/M03 A3038 RMK A01 T10161031  RH  089%=      5-min Rain = 0
KCH1 100728Z 29003KT M02/M03 A3038 RMK A01 T10161031  RH  089%=      5-min Rain = 0
KCH1 100729Z 28004KT M02/M03 A3038 RMK A01 T10161031  RH  090%=      5-min Rain = 0
KCH1 100730Z 28004KT M02/M03 A3038 RMK A01 T10161031  RH  090%=      5-min Rain = 0
KCH1 100731Z 28003KT M02/M03 A3038 RMK A01 T10161031  RH  090%=      5-min Rain = 0
KCH1 100732Z 28003KT M02/M03 A3038 RMK A01 T10161031  RH  089%=      5-min Rain = 0
KCH1 100733Z 27003KT M02/M03 A3037 RMK A01 T10171031  RH  090%=      5-min Rain = 0
KCH1 100734Z 27003KT M02/M03 A3037 RMK A01 T10171032  RH  090%=      5-min Rain = 0
KCH1 100735Z 27004KT M02/M03 A3037 RMK A01 T10171032  RH  089%=      5-min Rain = 0
KCH1 100736Z 26004KT M02/M03 A3037 RMK A01 T10161032  RH  089%=      5-min Rain = 0
KCH1 100737Z 25004KT M02/M03 A3037 RMK A01 T10161032  RH  089%=      5-min Rain = 0
KCH1 100738Z 25004KT M02/M03 A3037 RMK A01 T10171033  RH  089%=      5-min Rain = 0
KCH1 100739Z 26004KT M02/M03 A3037 RMK A01 T10181034  RH  089%=      5-min Rain = 0
KCH1 100740Z 26004KT M02/M03 A3037 RMK A01 T10181033  RH  090%=      5-min Rain = 0
KCH1 100741Z 27004KT M02/M03 A3037 RMK A01 T10191032  RH  091%=      5-min Rain = 0
KCH1 100742Z 27004KT M02/M03 A3037 RMK A01 T10191032  RH  091%=      5-min Rain = 0
KCH1 100743Z 28003KT M02/M03 A3037 RMK A01 T10191031  RH  091%=      5-min Rain = 0
KCH1 100744Z 26002KT M02/M03 A3037 RMK A01 T10191031  RH  091%=      5-min Rain = 0
KCH1 100745Z 23002KT M02/M03 A3037 RMK A01 T10191032  RH  091%=      5-min Rain = 0
KCH1 100746Z 23002KT M02/M03 A3037 RMK A01 T10201032  RH  091%=      5-min Rain = 0
KCH1 100747Z 23002KT M02/M03 A3037 RMK A01 T10201032  RH  091%=      5-min Rain = 0
KCH1 100748Z 25002KT M02/M03 A3037 RMK A01 T10201032  RH  092%=      5-min Rain = 0
KCH1 100749Z 25002KT M02/M03 A3037 RMK A01 T10201032  RH  092%=      5-min Rain = 0
KCH1 100750Z 24002KT M02/M03 A3037 RMK A01 T10201032  RH  092%=      5-min Rain = 0
KCH1 100751Z 25002KT M02/M03 A3037 RMK A01 T10211033  RH  092%=      5-min Rain = 0
KCH1 100752Z 26002KT M02/M03 A3037 RMK A01 T10211033  RH  092%=      5-min Rain = 0
KCH1 100753Z 27002KT M02/M03 A3037 RMK A01 T10211033  RH  092%=      5-min Rain = 0
KCH1 100754Z 28002KT M02/M03 A3037 RMK A01 T10221033  RH  092%=      5-min Rain = 0
KCH1 100755Z 28002KT M02/M03 A3037 RMK A01 T10221033  RH  092%=      5-min Rain = 0
KCH1 100756Z 28002KT M02/M03 A3037 RMK A01 T10221033  RH  092%=      5-min Rain = 0
KCH1 100757Z 28002KT M02/M03 A3037 RMK A01 T10231034  RH  092%=      5-min Rain = 0
KCH1 100758Z 28003KT M02/M03 A3037 RMK A01 T10231034  RH  092%=      5-min Rain = 0
KCH1 100759Z 28003KT M02/M03 A3037 RMK A01 T10221032  RH  093%=      5-min Rain = 0
KCH1 100800Z 29003KT M02/M03 A3037 RMK A01 T10221031  RH  093%=      5-min Rain = 0
KCH1 100801Z 29003KT M02/M03 A3037 RMK A01 T10211030  RH  093%=      5-min Rain = 0
KCH1 100802Z 29003KT M02/M03 A3037 RMK A01 T10201030  RH  093%=      5-min Rain = 0
KCH1 100803Z 29003KT M02/M03 A3037 RMK A01 T10191030  RH  093%=      5-min Rain = 0
KCH1 100804Z 29002KT M02/M03 A3037 RMK A01 T10201031  RH  092%=      5-min Rain = 0
KCH1 100805Z 29002KT M02/M03 A3037 RMK A01 T10211034  RH  091%=      5-min Rain = 0
KCH1 100806Z 29002KT M02/M04 A3037 RMK A01 T10221035  RH  091%=      5-min Rain = 0
KCH1 100807Z 29002KT M02/M04 A3037 RMK A01 T10231035  RH  091%=      5-min Rain = 0
KCH1 100808Z 29001KT M02/M04 A3037 RMK A01 T10241037  RH  091%=      5-min Rain = 0
KCH1 100809Z 29002KT M03/M04 A3037 RMK A01 T10251039  RH  090%=      5-min Rain = 0
KCH1 100810Z 28002KT M03/M04 A3037 RMK A01 T10261040  RH  090%=      5-min Rain = 0
KCH1 100811Z 28002KT M03/M04 A3037 RMK A01 T10281042  RH  090%=      5-min Rain = 0
KCH1 100812Z 30002KT M03/M04 A3037 RMK A01 T10301044  RH  090%=      5-min Rain = 0
KCH1 100813Z 31002KT M03/M05 A3037 RMK A01 T10321046  RH  090%=      5-min Rain = 0
KCH1 100814Z 34002KT M03/M05 A3037 RMK A01 T10341048  RH  090%=      5-min Rain = 0
KCH1 100815Z 35002KT M04/M05 A3037 RMK A01 T10351048  RH  091%=      5-min Rain = 0
KCH1 100816Z 34003KT M04/M05 A3037 RMK A01 T10361047  RH  092%=      5-min Rain = 0
KCH1 100817Z 34003KT M04/M05 A3037 RMK A01 T10361047  RH  092%=      5-min Rain = 0
KCH1 100818Z 34003KT M04/M05 A3037 RMK A01 T10361046  RH  093%=      5-min Rain = 0
KCH1 100819Z 35003KT M04/M05 A3037 RMK A01 T10361045  RH  094%=      5-min Rain = 0
KCH1 100820Z 01003KT M04/M05 A3037 RMK A01 T10361045  RH  094%=      5-min Rain = 0
KCH1 100821Z 03003KT M04/M04 A3037 RMK A01 T10361044  RH  094%=      5-min Rain = 0
KCH1 100822Z 03003KT M04/M04 A3037 RMK A01 T10361044  RH  094%=      5-min Rain = 0
KCH1 100823Z 02002KT M04/M04 A3037 RMK A01 T10361044  RH  094%=      5-min Rain = 0
KCH1 100824Z 01002KT M04/M04 A3037 RMK A01 T10361044  RH  095%=      5-min Rain = 0
KCH1 100825Z 35001KT M04/M04 A3037 RMK A01 T10351042  RH  095%=      5-min Rain = 0
KCH1 100826Z 34001KT M03/M04 A3037 RMK A01 T10341041  RH  095%=      5-min Rain = 0
KCH1 100827Z 32001KT M03/M04 A3037 RMK A01 T10341041  RH  095%=      5-min Rain = 0
KCH1 100828Z 31001KT M03/M04 A3037 RMK A01 T10341041  RH  095%=      5-min Rain = 0
KCH1 100829Z 29000KT M03/M04 A3037 RMK A01 T10341041  RH  095%=      5-min Rain = 0
KCH1 100830Z 32002KT M03/M04 A3037 RMK A01 T10341041  RH  095%=      5-min Rain = 0
KCH1 100831Z 33001KT M04/M04 A3037 RMK A01 T10351043  RH  094%=      5-min Rain = 0
KCH1 100832Z 32001KT M04/M04 A3037 RMK A01 T10361044  RH  094%=      5-min Rain = 0
KCH1 100833Z 32002KT M04/M04 A3037 RMK A01 T10361044  RH  094%=      5-min Rain = 0
KCH1 100834Z 32002KT M04/M05 A3038 RMK A01 T10371045  RH  094%=      5-min Rain = 0
KCH1 100835Z 31003KT M04/M04 A3038 RMK A01 T10371044  RH  095%=      5-min Rain = 0
KCH1 100836Z 31003KT M04/M04 A3038 RMK A01 T10371044  RH  095%=      5-min Rain = 0
KCH1 100837Z 30003KT M04/M04 A3038 RMK A01 T10371044  RH  095%=      5-min Rain = 0
KCH1 100838Z 30003KT M04/M04 A3038 RMK A01 T10371044  RH  095%=      5-min Rain = 0
KCH1 100839Z 29003KT M04/M05 A3038 RMK A01 T10371045  RH  095%=      5-min Rain = 0
KCH1 100840Z 28003KT M04/M05 A3038 RMK A01 T10381045  RH  095%=      5-min Rain = 0
KCH1 100841Z 27003KT M04/M04 A3038 RMK A01 T10381044  RH  095%=      5-min Rain = 0
KCH1 100842Z 27004KT M04/M04 A3038 RMK A01 T10361042  RH  096%=      5-min Rain = 0
KCH1 100843Z 27004KT M04/M04 A3038 RMK A01 T10351040  RH  096%=      5-min Rain = 0
KCH1 100844Z 27004KT M03/M04 A3038 RMK A01 T10331038  RH  096%=      5-min Rain = 0
KCH1 100845Z 27004KT M03/M03 A3038 RMK A01 T10301034  RH  097%=      5-min Rain = 0
KCH1 100846Z 27004KT M03/M03 A3038 RMK A01 T10281032  RH  097%=      5-min Rain = 0
KCH1 100847Z 28003KT M03/M03 A3038 RMK A01 T10261030  RH  097%=      5-min Rain = 0
KCH1 100848Z 28003KT M03/M03 A3038 RMK A01 T10251030  RH  097%=      5-min Rain = 0
KCH1 100849Z 28003KT M02/M03 A3038 RMK A01 T10241030  RH  096%=      5-min Rain = 0
KCH1 100850Z 28003KT M02/M03 A3038 RMK A01 T10231029  RH  096%=      5-min Rain = 0
KCH1 100851Z 29003KT M02/M03 A3038 RMK A01 T10221028  RH  095%=      5-min Rain = 0
KCH1 100852Z 29003KT M02/M03 A3038 RMK A01 T10211028  RH  095%=      5-min Rain = 0
KCH1 100853Z 29002KT M02/M03 A3038 RMK A01 T10201028  RH  094%=      5-min Rain = 0
KCH1 100854Z 29003KT M02/M03 A3038 RMK A01 T10211031  RH  093%=      5-min Rain = 0
KCH1 100855Z 29003KT M02/M03 A3038 RMK A01 T10221034  RH  092%=      5-min Rain = 0
KCH1 100856Z 29003KT M02/M04 A3038 RMK A01 T10231035  RH  091%=      5-min Rain = 0
KCH1 100857Z 28003KT M02/M03 A3038 RMK A01 T10231034  RH  092%=      5-min Rain = 0
KCH1 100858Z 28004KT M02/M03 A3038 RMK A01 T10221033  RH  092%=      5-min Rain = 0
KCH1 100859Z 28004KT M02/M03 A3038 RMK A01 T10221032  RH  093%=      5-min Rain = 0
KCH1 100900Z 28003KT M02/M03 A3038 RMK A01 T10211032  RH  093%=      5-min Rain = 0
KCH1 100901Z 28004KT M02/M03 A3037 RMK A01 T10201031  RH  092%=      5-min Rain = 0
KCH1 100902Z 29004KT M02/M03 A3037 RMK A01 T10201032  RH  092%=      5-min Rain = 0
KCH1 100903Z 29005KT M02/M03 A3037 RMK A01 T10201033  RH  091%=      5-min Rain = 0
KCH1 100904Z 30005KT M02/M03 A3037 RMK A01 T10191034  RH  089%=      5-min Rain = 0
KCH1 100905Z 30005KT M02/M04 A3037 RMK A01 T10171035  RH  088%=      5-min Rain = 0
KCH1 100906Z 30004KT M02/M04 A3037 RMK A01 T10151035  RH  087%=      5-min Rain = 0
KCH1 100907Z 30004KT M02/M04 A3037 RMK A01 T10151036  RH  085%=      5-min Rain = 0
KCH1 100908Z 30004KT M02/M04 A3037 RMK A01 T10171041  RH  084%=      5-min Rain = 0
KCH1 100909Z 31003KT M02/M05 A3037 RMK A01 T10221048  RH  083%=      5-min Rain = 0
KCH1 100910Z 31003KT M03/M05 A3037 RMK A01 T10281052  RH  083%=      5-min Rain = 0
KCH1 100911Z 31003KT M03/M05 A3037 RMK A01 T10311053  RH  085%=      5-min Rain = 0
KCH1 100912Z 31003KT M03/M05 A3037 RMK A01 T10331052  RH  087%=      5-min Rain = 0
KCH1 100913Z 32003KT M04/M05 A3037 RMK A01 T10351052  RH  088%=      5-min Rain = 0
KCH1 100914Z 32002KT M04/M05 A3037 RMK A01 T10371052  RH  089%=      5-min Rain = 0
KCH1 100915Z 34002KT M04/M05 A3037 RMK A01 T10371051  RH  090%=      5-min Rain = 0
KCH1 100916Z 34001KT M04/M05 A3037 RMK A01 T10391052  RH  091%=      5-min Rain = 0
KCH1 100917Z 33002KT M04/M05 A3037 RMK A01 T10401052  RH  091%=      5-min Rain = 0
KCH1 100918Z 33002KT M04/M05 A3037 RMK A01 T10401051  RH  092%=      5-min Rain = 0
KCH1 100919Z 32002KT M04/M05 A3037 RMK A01 T10391049  RH  093%=      5-min Rain = 0
KCH1 100920Z 32002KT M04/M05 A3037 RMK A01 T10381047  RH  093%=      5-min Rain = 0
KCH1 100921Z 32002KT M04/M05 A3037 RMK A01 T10371045  RH  094%=      5-min Rain = 0
KCH1 100922Z 32002KT M04/M05 A3037 RMK A01 T10361045  RH  094%=      5-min Rain = 0
KCH1 100923Z 32002KT M04/M04 A3037 RMK A01 T10351043  RH  094%=      5-min Rain = 0
KCH1 100924Z 33002KT M03/M04 A3037 RMK A01 T10331041  RH  095%=      5-min Rain = 0
KCH1 100925Z 33002KT M03/M04 A3037 RMK A01 T10331040  RH  095%=      5-min Rain = 0
KCH1 100926Z 33002KT M03/M04 A3037 RMK A01 T10321039  RH  095%=      5-min Rain = 0
KCH1 100927Z 33002KT M03/M04 A3037 RMK A01 T10311040  RH  094%=      5-min Rain = 0
KCH1 100928Z 34002KT M03/M04 A3037 RMK A01 T10331043  RH  093%=      5-min Rain = 0
KCH1 100929Z 34002KT M03/M05 A3037 RMK A01 T10341045  RH  092%=      5-min Rain = 0
KCH1 100930Z 34002KT M03/M05 A3037 RMK A01 T10341045  RH  092%=      5-min Rain = 0
KCH1 100931Z 34003KT M03/M05 A3037 RMK A01 T10341045  RH  092%=      5-min Rain = 0
KCH1 100932Z 33003KT M03/M04 A3037 RMK A01 T10331044  RH  092%=      5-min Rain = 0
KCH1 100933Z 33003KT M03/M04 A3037 RMK A01 T10321043  RH  092%=      5-min Rain = 0
KCH1 100934Z 33003KT M03/M04 A3037 RMK A01 T10321043  RH  092%=      5-min Rain = 0
KCH1 100935Z 33004KT M03/M04 A3037 RMK A01 T10321042  RH  092%=      5-min Rain = 0
KCH1 100936Z 33004KT M03/M04 A3037 RMK A01 T10321042  RH  092%=      5-min Rain = 0
KCH1 100937Z 32004KT M03/M04 A3037 RMK A01 T10311042  RH  092%=      5-min Rain = 0
KCH1 100938Z 32004KT M03/M04 A3037 RMK A01 T10291040  RH  092%=      5-min Rain = 0
KCH1 100939Z 33004KT M03/M04 A3037 RMK A01 T10281039  RH  092%=      5-min Rain = 0
KCH1 100940Z 34004KT M03/M04 A3037 RMK A01 T10271038  RH  092%=      5-min Rain = 0
KCH1 100941Z 34005KT M03/M04 A3037 RMK A01 T10261039  RH  091%=      5-min Rain = 0
KCH1 100942Z 34005KT M03/M04 A3037 RMK A01 T10261040  RH  090%=      5-min Rain = 0
KCH1 100943Z 34005KT M03/M04 A3037 RMK A01 T10271042  RH  090%=      5-min Rain = 0
KCH1 100944Z 34005KT M03/M04 A3037 RMK A01 T10281043  RH  089%=      5-min Rain = 0
KCH1 100945Z 34005KT M03/M05 A3037 RMK A01 T10291045  RH  089%=      5-min Rain = 0
KCH1 100946Z 34005KT M03/M05 A3037 RMK A01 T10311047  RH  089%=      5-min Rain = 0
KCH1 100947Z 34005KT M03/M05 A3037 RMK A01 T10321049  RH  088%=      5-min Rain = 0
KCH1 100948Z 34005KT M03/M05 A3036 RMK A01 T10331049  RH  089%=      5-min Rain = 0
KCH1 100949Z 34005KT M03/M05 A3036 RMK A01 T10331048  RH  089%=      5-min Rain = 0
KCH1 100950Z 33005KT M03/M05 A3036 RMK A01 T10331048  RH  090%=      5-min Rain = 0
KCH1 100951Z 33006KT M03/M05 A3036 RMK A01 T10321046  RH  090%=      5-min Rain = 0
KCH1 100952Z 33005KT M03/M05 A3036 RMK A01 T10301045  RH  090%=      5-min Rain = 0
KCH1 100953Z 33005KT M03/M04 A3036 RMK A01 T10291044  RH  089%=      5-min Rain = 0
KCH1 100954Z 33006KT M03/M04 A3036 RMK A01 T10271044  RH  089%=      5-min Rain = 0
KCH1 100955Z 33006KT M03/M04 A3036 RMK A01 T10261044  RH  088%=      5-min Rain = 0
KCH1 100956Z 33005KT M03/M04 A3036 RMK A01 T10251044  RH  087%=      5-min Rain = 0
KCH1 100957Z 33005KT M02/M04 A3036 RMK A01 T10231044  RH  086%=      5-min Rain = 0
KCH1 100958Z 33005KT M02/M04 A3036 RMK A01 T10221044  RH  085%=      5-min Rain = 0
KCH1 100959Z 34005KT M02/M05 A3036 RMK A01 T10221045  RH  084%=      5-min Rain = 0
KCH1 101000Z 33005KT M02/M05 A3036 RMK A01 T10221045  RH  084%=      5-min Rain = 0
KCH1 101001Z 33005KT M02/M05 A3036 RMK A01 T10221045  RH  084%=      5-min Rain = 0
KCH1 101002Z 33005KT M02/M05 A3036 RMK A01 T10221046  RH  084%=      5-min Rain = 0
KCH1 101003Z 33005KT M02/M05 A3036 RMK A01 T10221045  RH  084%=      5-min Rain = 0
KCH1 101004Z 33005KT M02/M05 A3036 RMK A01 T10221046  RH  084%=      5-min Rain = 0
KCH1 101005Z 33006KT M02/M05 A3036 RMK A01 T10221046  RH  084%=      5-min Rain = 0
KCH1 101006Z 33006KT M02/M05 A3036 RMK A01 T10211046  RH  083%=      5-min Rain = 0
KCH1 101007Z 33005KT M02/M05 A3036 RMK A01 T10201046  RH  083%=      5-min Rain = 0
KCH1 101008Z 33005KT M02/M05 A3036 RMK A01 T10201046  RH  082%=      5-min Rain = 0
KCH1 101009Z 33005KT M02/M05 A3036 RMK A01 T10191046  RH  082%=      5-min Rain = 0
KCH1 101010Z 32005KT M02/M05 A3036 RMK A01 T10191046  RH  081%=      5-min Rain = 0
KCH1 101011Z 32006KT M02/M05 A3036 RMK A01 T10181046  RH  081%=      5-min Rain = 0
KCH1 101012Z 32005KT M02/M05 A3036 RMK A01 T10181046  RH  081%=      5-min Rain = 0
KCH1 101013Z 32005KT M02/M05 A3036 RMK A01 T10181046  RH  081%=      5-min Rain = 0
KCH1 101014Z 32004KT M02/M05 A3036 RMK A01 T10181046  RH  081%=      5-min Rain = 0
KCH1 101015Z 31004KT M02/M05 A3036 RMK A01 T10181045  RH  082%=      5-min Rain = 0
KCH1 101016Z 31004KT M02/M05 A3036 RMK A01 T10171045  RH  081%=      5-min Rain = 0
KCH1 101017Z 31004KT M02/M04 A3036 RMK A01 T10161044  RH  081%=      5-min Rain = 0
KCH1 101018Z 31003KT M02/M04 A3036 RMK A01 T10161044  RH  081%=      5-min Rain = 0
KCH1 101019Z 31004KT M02/M04 A3036 RMK A01 T10151044  RH  081%=      5-min Rain = 0
KCH1 101020Z 31004KT M02/M04 A3036 RMK A01 T10151044  RH  081%=      5-min Rain = 0
KCH1 101021Z 30003KT M01/M04 A3036 RMK A01 T10141044  RH  080%=      5-min Rain = 0
KCH1 101022Z 30004KT M01/M04 A3036 RMK A01 T10141043  RH  080%=      5-min Rain = 0
KCH1 101023Z 31004KT M01/M04 A3035 RMK A01 T10141043  RH  081%=      5-min Rain = 0
KCH1 101024Z 31005KT M01/M04 A3035 RMK A01 T10141042  RH  081%=      5-min Rain = 0
KCH1 101025Z 31005KT M01/M04 A3035 RMK A01 T10141041  RH  082%=      5-min Rain = 0
KCH1 101026Z 32004KT M01/M04 A3035 RMK A01 T10141041  RH  082%=      5-min Rain = 0
KCH1 101027Z 32004KT M01/M04 A3035 RMK A01 T10141041  RH  082%=      5-min Rain = 0
KCH1 101028Z 32003KT M01/M04 A3035 RMK A01 T10141041  RH  082%=      5-min Rain = 0
KCH1 101029Z 33003KT M02/M04 A3035 RMK A01 T10151041  RH  083%=      5-min Rain = 0
KCH1 101030Z 32003KT M02/M04 A3035 RMK A01 T10171043  RH  082%=      5-min Rain = 0
KCH1 101031Z 32003KT M02/M05 A3035 RMK A01 T10211049  RH  081%=      5-min Rain = 0
KCH1 101032Z 33003KT M03/M05 A3035 RMK A01 T10261054  RH  081%=      5-min Rain = 0
KCH1 101033Z 33003KT M03/M05 A3035 RMK A01 T10281053  RH  083%=      5-min Rain = 0
KCH1 101034Z 33003KT M03/M05 A3035 RMK A01 T10301052  RH  084%=      5-min Rain = 0
KCH1 101035Z 33003KT M03/M05 A3035 RMK A01 T10311052  RH  085%=      5-min Rain = 0
KCH1 101036Z 32003KT M03/M05 A3035 RMK A01 T10311051  RH  086%=      5-min Rain = 0
KCH1 101037Z 32003KT M03/M05 A3035 RMK A01 T10311049  RH  087%=      5-min Rain = 0
KCH1 101038Z 32004KT M03/M05 A3035 RMK A01 T10301047  RH  088%=      5-min Rain = 0
KCH1 101039Z 31004KT M03/M05 A3035 RMK A01 T10281046  RH  088%=      5-min Rain = 0
KCH1 101040Z 31003KT M03/M04 A3035 RMK A01 T10261044  RH  088%=      5-min Rain = 0
KCH1 101041Z 30003KT M02/M04 A3035 RMK A01 T10241043  RH  087%=      5-min Rain = 0
KCH1 101042Z 30003KT M02/M04 A3035 RMK A01 T10231042  RH  086%=      5-min Rain = 0
KCH1 101043Z 30003KT M02/M04 A3035 RMK A01 T10211042  RH  086%=      5-min Rain = 0
KCH1 101044Z 30004KT M02/M04 A3035 RMK A01 T10201041  RH  086%=      5-min Rain = 0
KCH1 101045Z 29003KT M02/M04 A3035 RMK A01 T10191040  RH  086%=      5-min Rain = 0
KCH1 101046Z 29003KT M02/M04 A3035 RMK A01 T10181039  RH  085%=      5-min Rain = 0
KCH1 101047Z 29003KT M02/M04 A3035 RMK A01 T10171040  RH  085%=      5-min Rain = 0
KCH1 101048Z 29003KT M02/M04 A3035 RMK A01 T10181040  RH  085%=      5-min Rain = 0
KCH1 101049Z 30003KT M02/M04 A3035 RMK A01 T10181040  RH  085%=      5-min Rain = 0
KCH1 101050Z 30002KT M02/M04 A3035 RMK A01 T10171039  RH  085%=      5-min Rain = 0
KCH1 101051Z 30002KT M02/M04 A3035 RMK A01 T10181039  RH  086%=      5-min Rain = 0
KCH1 101052Z 31001KT M02/M04 A3035 RMK A01 T10181039  RH  085%=      5-min Rain = 0
KCH1 101053Z 31002KT M02/M04 A3035 RMK A01 T10181039  RH  085%=      5-min Rain = 0
KCH1 101054Z 32002KT M02/M04 A3035 RMK A01 T10171038  RH  086%=      5-min Rain = 0
KCH1 101055Z 31002KT M02/M04 A3035 RMK A01 T10161037  RH  086%=      5-min Rain = 0
KCH1 101056Z 30002KT M02/M04 A3035 RMK A01 T10161036  RH  086%=      5-min Rain = 0
KCH1 101057Z 30002KT M02/M04 A3035 RMK A01 T10151035  RH  086%=      5-min Rain = 0
KCH1 101058Z 29002KT M01/M04 A3035 RMK A01 T10141036  RH  085%=      5-min Rain = 0
KCH1 101059Z 29002KT M01/M04 A3035 RMK A01 T10141036  RH  085%=      5-min Rain = 0
KCH1 101100Z 27002KT M01/M04 A3035 RMK A01 T10141035  RH  085%=      5-min Rain = 0
KCH1 101101Z 27001KT M01/M04 A3035 RMK A01 T10141035  RH  086%=      5-min Rain = 0
KCH1 101102Z 29001KT M01/M04 A3035 RMK A01 T10141035  RH  086%=      5-min Rain = 0
KCH1 101103Z 29001KT M01/M03 A3035 RMK A01 T10131034  RH  086%=      5-min Rain = 0
KCH1 101104Z 30002KT M01/M03 A3035 RMK A01 T10131034  RH  086%=      5-min Rain = 0
KCH1 101105Z 30002KT M01/M03 A3035 RMK A01 T10131034  RH  085%=      5-min Rain = 0
KCH1 101106Z 30002KT M01/M04 A3035 RMK A01 T10131035  RH  085%=      5-min Rain = 0
KCH1 101107Z 30003KT M01/M04 A3035 RMK A01 T10131035  RH  085%=      5-min Rain = 0
KCH1 101108Z 30002KT M01/M03 A3035 RMK A01 T10131034  RH  086%=      5-min Rain = 0
KCH1 101109Z 30003KT M01/M03 A3035 RMK A01 T10131033  RH  086%=      5-min Rain = 0
KCH1 101110Z 30003KT M01/M03 A3035 RMK A01 T10121032  RH  086%=      5-min Rain = 0
KCH1 101111Z 30003KT M01/M03 A3035 RMK A01 T10111031  RH  086%=      5-min Rain = 0
KCH1 101112Z 30003KT M01/M03 A3035 RMK A01 T10111031  RH  086%=      5-min Rain = 0
KCH1 101113Z 30004KT M01/M03 A3035 RMK A01 T10101031  RH  086%=      5-min Rain = 0
KCH1 101114Z 30004KT M01/M03 A3035 RMK A01 T10101031  RH  086%=      5-min Rain = 0
KCH1 101115Z 30004KT M01/M03 A3035 RMK A01 T10101031  RH  086%=      5-min Rain = 0
KCH1 101116Z 30004KT M01/M03 A3035 RMK A01 T10101031  RH  086%=      5-min Rain = 0
KCH1 101117Z 30004KT M01/M03 A3036 RMK A01 T10101030  RH  086%=      5-min Rain = 0
KCH1 101118Z 30004KT M01/M03 A3036 RMK A01 T10101030  RH  086%=      5-min Rain = 0
KCH1 101119Z 29003KT M01/M03 A3036 RMK A01 T10101030  RH  086%=      5-min Rain = 0
KCH1 101120Z 29003KT M01/M03 A3036 RMK A01 T10101030  RH  086%=      5-min Rain = 0
KCH1 101121Z 29003KT M01/M03 A3036 RMK A01 T10111031  RH  086%=      5-min Rain = 0
KCH1 101122Z 29003KT M01/M03 A3036 RMK A01 T10121032  RH  086%=      5-min Rain = 0
KCH1 101123Z 28002KT M01/M03 A3036 RMK A01 T10121032  RH  087%=      5-min Rain = 0
KCH1 101124Z 28002KT M01/M03 A3036 RMK A01 T10131031  RH  087%=      5-min Rain = 0
KCH1 101125Z 27002KT M01/M03 A3036 RMK A01 T10131031  RH  088%=      5-min Rain = 0
KCH1 101126Z 27002KT M01/M03 A3036 RMK A01 T10131030  RH  088%=      5-min Rain = 0
KCH1 101127Z 27002KT M01/M03 A3036 RMK A01 T10141031  RH  088%=      5-min Rain = 0
KCH1 101128Z 27003KT M02/M03 A3036 RMK A01 T10151032  RH  088%=      5-min Rain = 0
KCH1 101129Z 27003KT M02/M03 A3036 RMK A01 T10151032  RH  088%=      5-min Rain = 0
KCH1 101130Z 28003KT M02/M03 A3036 RMK A01 T10151031  RH  089%=      5-min Rain = 0
KCH1 101131Z 28004KT M02/M03 A3036 RMK A01 T10151031  RH  089%=      5-min Rain = 0
KCH1 101132Z 27003KT M02/M03 A3036 RMK A01 T10151031  RH  089%=      5-min Rain = 0
KCH1 101133Z 27003KT M02/M03 A3036 RMK A01 T10151032  RH  089%=      5-min Rain = 0
KCH1 101134Z 27003KT M02/M03 A3036 RMK A01 T10151032  RH  088%=      5-min Rain = 0
KCH1 101135Z 28004KT M02/M03 A3036 RMK A01 T10161033  RH  088%=      5-min Rain = 0
KCH1 101136Z 28004KT M02/M03 A3036 RMK A01 T10161033  RH  088%=      5-min Rain = 0
KCH1 101137Z 28004KT M02/M03 A3036 RMK A01 T10171034  RH  088%=      5-min Rain = 0
KCH1 101138Z 28004KT M02/M04 A3036 RMK A01 T10181035  RH  088%=      5-min Rain = 0
KCH1 101139Z 28004KT M02/M04 A3036 RMK A01 T10181035  RH  088%=      5-min Rain = 0
KCH1 101140Z 29004KT M02/M04 A3036 RMK A01 T10181035  RH  089%=      5-min Rain = 0
KCH1 101141Z 29004KT M02/M03 A3036 RMK A01 T10191034  RH  089%=      5-min Rain = 0
KCH1 101142Z 29004KT M02/M03 A3036 RMK A01 T10191034  RH  089%=      5-min Rain = 0
KCH1 101143Z 29004KT M02/M03 A3036 RMK A01 T10191034  RH  089%=      5-min Rain = 0
KCH1 101144Z 29003KT M02/M03 A3036 RMK A01 T10191034  RH  089%=      5-min Rain = 0
KCH1 101145Z 29003KT M02/M03 A3036 RMK A01 T10191034  RH  089%=      5-min Rain = 0
KCH1 101146Z 29003KT M02/M03 A3036 RMK A01 T10181033  RH  090%=      5-min Rain = 0
KCH1 101147Z 29003KT M02/M03 A3036 RMK A01 T10181033  RH  090%=      5-min Rain = 0
KCH1 101148Z 28003KT M02/M03 A3036 RMK A01 T10181032  RH  090%=      5-min Rain = 0
KCH1 101149Z 28003KT M02/M03 A3036 RMK A01 T10181032  RH  090%=      5-min Rain = 0
KCH1 101150Z 28003KT M02/M03 A3036 RMK A01 T10181032  RH  090%=      5-min Rain = 0
KCH1 101151Z 28003KT M02/M03 A3036 RMK A01 T10171032  RH  090%=      5-min Rain = 0
KCH1 101152Z 29003KT M02/M03 A3036 RMK A01 T10181032  RH  090%=      5-min Rain = 0
KCH1 101153Z 29002KT M02/M03 A3037 RMK A01 T10181032  RH  090%=      5-min Rain = 0
KCH1 101154Z 29002KT M02/M03 A3037 RMK A01 T10181032  RH  090%=      5-min Rain = 0
KCH1 101155Z 28001KT M02/M03 A3037 RMK A01 T10171031  RH  090%=      5-min Rain = 0
KCH1 101156Z 29001KT M02/M03 A3037 RMK A01 T10171031  RH  090%=      5-min Rain = 0
KCH1 101157Z 31001KT M02/M03 A3037 RMK A01 T10171031  RH  090%=      5-min Rain = 0
KCH1 101158Z 31002KT M02/M03 A3037 RMK A01 T10171031  RH  090%=      5-min Rain = 0
KCH1 101159Z 32002KT M02/M03 A3037 RMK A01 T10171032  RH  090%=      5-min Rain = 0
KCH1 101200Z 31002KT M02/M03 A3037 RMK A01 T10171032  RH  090%=      5-min Rain = 0
KCH1 101201Z 32002KT M02/M03 A3037 RMK A01 T10171032  RH  090%=      5-min Rain = 0
KCH1 101202Z 31002KT M02/M03 A3037 RMK A01 T10181033  RH  089%=      5-min Rain = 0
KCH1 101203Z 30002KT M02/M04 A3037 RMK A01 T10201038  RH  088%=      5-min Rain = 0
KCH1 101204Z 30001KT M02/M04 A3037 RMK A01 T10211038  RH  088%=      5-min Rain = 0
KCH1 101205Z 31001KT M02/M04 A3037 RMK A01 T10211037  RH  089%=      5-min Rain = 0
KCH1 101206Z 31000KT M02/M04 A3037 RMK A01 T10221038  RH  089%=      5-min Rain = 0
KCH1 101207Z 31000KT M02/M04 A3037 RMK A01 T10241041  RH  088%=      5-min Rain = 0
KCH1 101208Z 00000KT M03/M04 A3037 RMK A01 T10261043  RH  088%=      5-min Rain = 0
KCH1 101209Z 00000KT M03/M04 A3037 RMK A01 T10271043  RH  089%=      5-min Rain = 0
KCH1 101210Z 00000KT M03/M04 A3037 RMK A01 T10271042  RH  090%=      5-min Rain = 0
KCH1 101211Z 00000KT M03/M04 A3037 RMK A01 T10271041  RH  090%=      5-min Rain = 0
KCH1 101212Z 00000KT M03/M04 A3037 RMK A01 T10271040  RH  091%=      5-min Rain = 0
KCH1 101213Z 31000KT M03/M04 A3037 RMK A01 T10261038  RH  091%=      5-min Rain = 0
KCH1 101214Z 30000KT M03/M04 A3037 RMK A01 T10251036  RH  092%=      5-min Rain = 0
KCH1 101215Z 30000KT M02/M03 A3037 RMK A01 T10241034  RH  093%=      5-min Rain = 0
KCH1 101216Z 30000KT M02/M03 A3037 RMK A01 T10241034  RH  093%=      5-min Rain = 0
KCH1 101217Z 30000KT M02/M03 A3037 RMK A01 T10231034  RH  093%=      5-min Rain = 0
KCH1 101218Z 30001KT M02/M03 A3037 RMK A01 T10231033  RH  093%=      5-min Rain = 0
KCH1 101219Z 30001KT M02/M03 A3037 RMK A01 T10231033  RH  093%=      5-min Rain = 0
KCH1 101220Z 31001KT M02/M03 A3037 RMK A01 T10231033  RH  093%=      5-min Rain = 0
KCH1 101221Z 28001KT M02/M03 A3037 RMK A01 T10221031  RH  093%=      5-min Rain = 0
KCH1 101222Z 29000KT M02/M03 A3037 RMK A01 T10211030  RH  094%=      5-min Rain = 0
KCH1 101223Z 27001KT M02/M03 A3037 RMK A01 T10211030  RH  093%=      5-min Rain = 0
KCH1 101224Z 26001KT M02/M03 A3037 RMK A01 T10201030  RH  093%=      5-min Rain = 0
KCH1 101225Z 24001KT M02/M03 A3037 RMK A01 T10201030  RH  093%=      5-min Rain = 0
KCH1 101226Z 24001KT M02/M03 A3037 RMK A01 T10191030  RH  092%=      5-min Rain = 0
KCH1 101227Z 26001KT M02/M03 A3037 RMK A01 T10181029  RH  092%=      5-min Rain = 0
KCH1 101228Z 26001KT M02/M03 A3038 RMK A01 T10171029  RH  091%=      5-min Rain = 0
KCH1 101229Z 29002KT M02/M03 A3038 RMK A01 T10171030  RH  091%=      5-min Rain = 0
KCH1 101230Z 29002KT M02/M03 A3038 RMK A01 T10161030  RH  091%=      5-min Rain = 0
KCH1 101231Z 28002KT M02/M03 A3038 RMK A01 T10151029  RH  091%=      5-min Rain = 0
KCH1 101232Z 29002KT M02/M03 A3038 RMK A01 T10151029  RH  090%=      5-min Rain = 0
KCH1 101233Z 30003KT M02/M03 A3038 RMK A01 T10151031  RH  089%=      5-min Rain = 0
KCH1 101234Z 30002KT M02/M03 A3038 RMK A01 T10151031  RH  089%=      5-min Rain = 0
KCH1 101235Z 30003KT M02/M03 A3038 RMK A01 T10151032  RH  088%=      5-min Rain = 0
KCH1 101236Z 30003KT M01/M03 A3038 RMK A01 T10141033  RH  087%=      5-min Rain = 0
KCH1 101237Z 30002KT M01/M03 A3038 RMK A01 T10141033  RH  087%=      5-min Rain = 0
KCH1 101238Z 30003KT M02/M03 A3038 RMK A01 T10151034  RH  087%=      5-min Rain = 0
KCH1 101239Z 30002KT M02/M04 A3038 RMK A01 T10161035  RH  086%=      5-min Rain = 0
KCH1 101240Z 30002KT M02/M04 A3038 RMK A01 T10161035  RH  087%=      5-min Rain = 0
KCH1 101241Z 31002KT M02/M03 A3038 RMK A01 T10161034  RH  087%=      5-min Rain = 0
KCH1 101242Z 31002KT M02/M03 A3038 RMK A01 T10161033  RH  088%=      5-min Rain = 0
KCH1 101243Z 30002KT M02/M03 A3038 RMK A01 T10161033  RH  088%=      5-min Rain = 0
KCH1 101244Z 30003KT M02/M03 A3038 RMK A01 T10161033  RH  089%=      5-min Rain = 0
KCH1 101245Z 29002KT M02/M03 A3038 RMK A01 T10161033  RH  089%=      5-min Rain = 0
KCH1 101246Z 30002KT M02/M03 A3038 RMK A01 T10161032  RH  089%=      5-min Rain = 0
KCH1 101247Z 30003KT M02/M03 A3038 RMK A01 T10161032  RH  089%=      5-min Rain = 0
KCH1 101248Z 30003KT M02/M03 A3038 RMK A01 T10161032  RH  089%=      5-min Rain = 0
KCH1 101249Z 30003KT M02/M03 A3038 RMK A01 T10151032  RH  089%=      5-min Rain = 0
KCH1 101250Z 30003KT M02/M03 A3038 RMK A01 T10151032  RH  088%=      5-min Rain = 0
KCH1 101251Z 30003KT M02/M03 A3038 RMK A01 T10151032  RH  088%=      5-min Rain = 0
KCH1 101252Z 30003KT M02/M03 A3038 RMK A01 T10151032  RH  088%=      5-min Rain = 0
KCH1 101253Z 29003KT M02/M03 A3038 RMK A01 T10151033  RH  088%=      5-min Rain = 0
KCH1 101254Z 30003KT M02/M03 A3038 RMK A01 T10151033  RH  088%=      5-min Rain = 0
KCH1 101255Z 29003KT M02/M03 A3038 RMK A01 T10151033  RH  088%=      5-min Rain = 0
KCH1 101256Z 29002KT M02/M03 A3038 RMK A01 T10151033  RH  088%=      5-min Rain = 0
KCH1 101257Z 29003KT M02/M03 A3038 RMK A01 T10161033  RH  088%=      5-min Rain = 0
KCH1 101258Z 29004KT M02/M03 A3038 RMK A01 T10161032  RH  089%=      5-min Rain = 0
KCH1 101259Z 29004KT M02/M03 A3038 RMK A01 T10161032  RH  089%=      5-min Rain = 0
KCH1 101300Z 29004KT M02/M03 A3038 RMK A01 T10161032  RH  089%=      5-min Rain = 0
KCH1 101301Z 29004KT M02/M03 A3038 RMK A01 T10171032  RH  089%=      5-min Rain = 0
KCH1 101302Z 29003KT M02/M03 A3038 RMK A01 T10171033  RH  089%=      5-min Rain = 0
KCH1 101303Z 29004KT M02/M03 A3038 RMK A01 T10181033  RH  089%=      5-min Rain = 0
KCH1 101304Z 29004KT M02/M03 A3038 RMK A01 T10181033  RH  090%=      5-min Rain = 0
KCH1 101305Z 29003KT M02/M03 A3038 RMK A01 T10181032  RH  090%=      5-min Rain = 0
KCH1 101306Z 29003KT M02/M03 A3038 RMK A01 T10181032  RH  090%=      5-min Rain = 0
KCH1 101307Z 29002KT M02/M03 A3038 RMK A01 T10191032  RH  091%=      5-min Rain = 0
KCH1 101308Z 29003KT M02/M03 A3038 RMK A01 T10191032  RH  091%=      5-min Rain = 0
KCH1 101309Z 29002KT M02/M03 A3038 RMK A01 T10191033  RH  091%=      5-min Rain = 0
KCH1 101310Z 28002KT M02/M03 A3038 RMK A01 T10201032  RH  091%=      5-min Rain = 0
KCH1 101311Z 28002KT M02/M03 A3038 RMK A01 T10201032  RH  091%=      5-min Rain = 0
KCH1 101312Z 27002KT M02/M03 A3038 RMK A01 T10201032  RH  091%=      5-min Rain = 0
KCH1 101313Z 28002KT M02/M03 A3038 RMK A01 T10201032  RH  092%=      5-min Rain = 0
KCH1 101314Z 28002KT M02/M03 A3038 RMK A01 T10201032  RH  092%=      5-min Rain = 0
KCH1 101315Z 29002KT M02/M03 A3038 RMK A01 T10201032  RH  092%=      5-min Rain = 0
KCH1 101316Z 29002KT M02/M03 A3038 RMK A01 T10211032  RH  092%=      5-min Rain = 0
KCH1 101317Z 29002KT M02/M03 A3038 RMK A01 T10211032  RH  092%=      5-min Rain = 0
KCH1 101318Z 30003KT M02/M03 A3039 RMK A01 T10211032  RH  092%=      5-min Rain = 0
KCH1 101319Z 31003KT M02/M03 A3039 RMK A01 T10211032  RH  092%=      5-min Rain = 0
KCH1 101320Z 31002KT M02/M03 A3038 RMK A01 T10211032  RH  092%=      5-min Rain = 0
KCH1 101321Z 31002KT M02/M03 A3039 RMK A01 T10211032  RH  092%=      5-min Rain = 0
KCH1 101322Z 31002KT M02/M03 A3039 RMK A01 T10201032  RH  092%=      5-min Rain = 0
KCH1 101323Z 31002KT M02/M03 A3039 RMK A01 T10201032  RH  092%=      5-min Rain = 0
KCH1 101324Z 33001KT M02/M03 A3039 RMK A01 T10221034  RH  091%=      5-min Rain = 0
KCH1 101325Z 33001KT M03/M04 A3039 RMK A01 T10251039  RH  090%=      5-min Rain = 0
KCH1 101326Z 33001KT M03/M04 A3039 RMK A01 T10281043  RH  089%=      5-min Rain = 0
KCH1 101327Z 33002KT M03/M05 A3039 RMK A01 T10321049  RH  088%=      5-min Rain = 0
KCH1 101328Z 32002KT M03/M05 A3039 RMK A01 T10341051  RH  088%=      5-min Rain = 0
KCH1 101329Z 33002KT M04/M05 A3039 RMK A01 T10351049  RH  090%=      5-min Rain = 0
KCH1 101330Z 34002KT M04/M05 A3039 RMK A01 T10351047  RH  091%=      5-min Rain = 0
KCH1 101331Z 33002KT M04/M05 A3039 RMK A01 T10351047  RH  092%=      5-min Rain = 0
KCH1 101332Z 32002KT M04/M05 A3039 RMK A01 T10351046  RH  092%=      5-min Rain = 0
KCH1 101333Z 31002KT M03/M04 A3039 RMK A01 T10341044  RH  093%=      5-min Rain = 0
KCH1 101334Z 30002KT M03/M04 A3039 RMK A01 T10331043  RH  093%=      5-min Rain = 0
KCH1 101335Z 31001KT M03/M04 A3039 RMK A01 T10331042  RH  093%=      5-min Rain = 0
KCH1 101336Z 31002KT M03/M04 A3039 RMK A01 T10331043  RH  092%=      5-min Rain = 0
KCH1 101337Z 31002KT M03/M05 A3039 RMK A01 T10331045  RH  092%=      5-min Rain = 0
KCH1 101338Z 30002KT M03/M05 A3039 RMK A01 T10331045  RH  092%=      5-min Rain = 0
KCH1 101339Z 31002KT M03/M04 A3039 RMK A01 T10321044  RH  092%=      5-min Rain = 0
KCH1 101340Z 30003KT M03/M04 A3039 RMK A01 T10321044  RH  091%=      5-min Rain = 0
KCH1 101341Z 31004KT M03/M05 A3039 RMK A01 T10321045  RH  091%=      5-min Rain = 0
KCH1 101342Z 31004KT M03/M05 A3039 RMK A01 T10321045  RH  091%=      5-min Rain = 0
KCH1 101343Z 31004KT M03/M04 A3039 RMK A01 T10321044  RH  091%=      5-min Rain = 0
KCH1 101344Z 31004KT M03/M04 A3039 RMK A01 T10291040  RH  092%=      5-min Rain = 0
KCH1 101345Z 31005KT M03/M03 A3039 RMK A01 T10261034  RH  094%=      5-min Rain = 0
KCH1 101346Z 32005KT M02/M03 A3039 RMK A01 T10221030  RH  094%=      5-min Rain = 0
KCH1 101347Z 31004KT M02/M03 A3039 RMK A01 T10201029  RH  094%=      5-min Rain = 0
KCH1 101348Z 32004KT M02/M03 A3039 RMK A01 T10181028  RH  093%=      5-min Rain = 0
KCH1 101349Z 32004KT M02/M03 A3039 RMK A01 T10161028  RH  092%=      5-min Rain = 0
KCH1 101350Z 31003KT M02/M03 A3039 RMK A01 T10151029  RH  090%=      5-min Rain = 0
KCH1 101351Z 32003KT M02/M03 A3039 RMK A01 T10151030  RH  090%=      5-min Rain = 0
KCH1 101352Z 31003KT M01/M03 A3039 RMK A01 T10131029  RH  089%=      5-min Rain = 0
KCH1 101353Z 31004KT M01/M03 A3039 RMK A01 T10131029  RH  089%=      5-min Rain = 0
KCH1 101354Z 32004KT M01/M03 A3039 RMK A01 T10131030  RH  088%=      5-min Rain = 0
KCH1 101355Z 31005KT M01/M03 A3039 RMK A01 T10121029  RH  088%=      5-min Rain = 0
KCH1 101356Z 31005KT M01/M03 A3039 RMK A01 T10111029  RH  088%=      5-min Rain = 0
KCH1 101357Z 32004KT M01/M03 A3039 RMK A01 T10111028  RH  088%=      5-min Rain = 0
KCH1 101358Z 32004KT M01/M03 A3039 RMK A01 T10101028  RH  088%=      5-min Rain = 0
KCH1 101359Z 32004KT M01/M03 A3039 RMK A01 T10101028  RH  088%=      5-min Rain = 0
KCH1 101400Z 32005KT M01/M03 A3039 RMK A01 T10101028  RH  088%=      5-min Rain = 0
KCH1 101401Z 32005KT M01/M03 A3039 RMK A01 T10091027  RH  088%=      5-min Rain = 0
KCH1 101402Z 32005KT M01/M03 A3039 RMK A01 T10091026  RH  088%=      5-min Rain = 0
KCH1 101403Z 32005KT M01/M03 A3039 RMK A01 T10081026  RH  088%=      5-min Rain = 0
KCH1 101404Z 32005KT M01/M03 A3039 RMK A01 T10071025  RH  087%=      5-min Rain = 0
KCH1 101405Z 32005KT M01/M03 A3039 RMK A01 T10071025  RH  087%=      5-min Rain = 0
KCH1 101406Z 32005KT M01/M03 A3039 RMK A01 T10071026  RH  087%=      5-min Rain = 0
KCH1 101407Z 32005KT M01/M03 A3039 RMK A01 T10061026  RH  087%=      5-min Rain = 0
KCH1 101408Z 31004KT M01/M03 A3039 RMK A01 T10061025  RH  087%=      5-min Rain = 0
KCH1 101409Z 31004KT M01/M03 A3039 RMK A01 T10051025  RH  087%=      5-min Rain = 0
KCH1 101410Z 31005KT M01/M03 A3039 RMK A01 T10051025  RH  086%=      5-min Rain = 0
KCH1 101411Z 32004KT M00/M02 A3039 RMK A01 T10041024  RH  087%=      5-min Rain = 0
KCH1 101412Z 32004KT M00/M02 A3039 RMK A01 T10041024  RH  087%=      5-min Rain = 0
KCH1 101413Z 32003KT M00/M02 A3039 RMK A01 T10041024  RH  086%=      5-min Rain = 0
KCH1 101414Z 32003KT M00/M02 A3039 RMK A01 T10031023  RH  086%=      5-min Rain = 0
KCH1 101415Z 32003KT M00/M02 A3039 RMK A01 T10031023  RH  086%=      5-min Rain = 0
KCH1 101416Z 32003KT M00/M02 A3039 RMK A01 T10021023  RH  086%=      5-min Rain = 0
KCH1 101417Z 31002KT M00/M02 A3039 RMK A01 T10021023  RH  086%=      5-min Rain = 0
KCH1 101418Z 31002KT M00/M02 A3039 RMK A01 T10011023  RH  085%=      5-min Rain = 0
KCH1 101419Z 31002KT M00/M02 A3039 RMK A01 T10011022  RH  085%=      5-min Rain = 0
KCH1 101420Z 31002KT 00/02 A3039 RMK A01 T00000-22  RH  085%=      5-min Rain = 0
KCH1 101421Z 31003KT 00/M02 A3039 RMK A01 T00011022  RH  085%=      5-min Rain = 0
KCH1 101422Z 31003KT 00/M02 A3039 RMK A01 T00021021  RH  085%=      5-min Rain = 0
KCH1 101423Z 30003KT 00/M02 A3039 RMK A01 T00021020  RH  085%=      5-min Rain = 0
KCH1 101424Z 30003KT 00/M02 A304 RMK A01 T00031019  RH  085%=      5-min Rain = 0
KCH1 101425Z 30003KT 00/M02 A304 RMK A01 T00041019  RH  085%=      5-min Rain = 0
KCH1 101426Z 30003KT 01/M02 A304 RMK A01 T00051018  RH  085%=      5-min Rain = 0
KCH1 101427Z 30005KT 01/M02 A3039 RMK A01 T00061018  RH  084%=      5-min Rain = 0
KCH1 101428Z 31003KT 01/M02 A3039 RMK A01 T00061017  RH  084%=      5-min Rain = 0
KCH1 101429Z 30004KT 01/M02 A3039 RMK A01 T00071017  RH  084%=      5-min Rain = 0
KCH1 101430Z 30005KT 01/M02 A3039 RMK A01 T00081016  RH  084%=      5-min Rain = 0
KCH1 101431Z 30004KT 01/M02 A3039 RMK A01 T00081016  RH  084%=      5-min Rain = 0
KCH1 101432Z 30004KT 01/M02 A3039 RMK A01 T00091015  RH  084%=      5-min Rain = 0
KCH1 101433Z 30004KT 01/M02 A3039 RMK A01 T00101015  RH  084%=      5-min Rain = 0
KCH1 101434Z 31004KT 01/M02 A3039 RMK A01 T00101015  RH  083%=      5-min Rain = 0
KCH1 101435Z 30003KT 01/M02 A3039 RMK A01 T00101015  RH  083%=      5-min Rain = 0
KCH1 101436Z 30003KT 01/M01 A3039 RMK A01 T00111014  RH  083%=      5-min Rain = 0
KCH1 101437Z 30003KT 01/M01 A3039 RMK A01 T00111013  RH  084%=      5-min Rain = 0
KCH1 101438Z 30003KT 01/M01 A3039 RMK A01 T00121013  RH  084%=      5-min Rain = 0
KCH1 101439Z 30003KT 01/M01 A3039 RMK A01 T00131012  RH  084%=      5-min Rain = 0
KCH1 101440Z 31003KT 01/M01 A3039 RMK A01 T00131011  RH  084%=      5-min Rain = 0
KCH1 101441Z 31003KT 01/M01 A3039 RMK A01 T00141011  RH  084%=      5-min Rain = 0
KCH1 101442Z 31004KT 01/M01 A3039 RMK A01 T00141011  RH  084%=      5-min Rain = 0
KCH1 101443Z 31006KT 02/M01 A3039 RMK A01 T00151011  RH  083%=      5-min Rain = 0
KCH1 101444Z 31005KT 02/M01 A3039 RMK A01 T00151012  RH  082%=      5-min Rain = 0
KCH1 101445Z 31005KT 02/M01 A3039 RMK A01 T00161012  RH  082%=      5-min Rain = 0
KCH1 101446Z 32004KT 02/M01 A3039 RMK A01 T00161012  RH  081%=      5-min Rain = 0
KCH1 101447Z 32004KT 02/M01 A3039 RMK A01 T00161012  RH  081%=      5-min Rain = 0
KCH1 101448Z 31004KT 02/M01 A3039 RMK A01 T00171012  RH  081%=      5-min Rain = 0
KCH1 101449Z 32004KT 02/M01 A3039 RMK A01 T00171011  RH  081%=      5-min Rain = 0
KCH1 101450Z 32004KT 02/M01 A3039 RMK A01 T00181011  RH  081%=      5-min Rain = 0
KCH1 101451Z 32004KT 02/M01 A304 RMK A01 T00181011  RH  081%=      5-min Rain = 0
KCH1 101452Z 32005KT 02/M01 A304 RMK A01 T00191010  RH  081%=      5-min Rain = 0
KCH1 101453Z 32005KT 02/M01 A304 RMK A01 T00181011  RH  081%=      5-min Rain = 0
KCH1 101454Z 32006KT 02/M01 A304 RMK A01 T00191012  RH  080%=      5-min Rain = 0
KCH1 101455Z 31006KT 02/M01 A304 RMK A01 T00191012  RH  080%=      5-min Rain = 0
KCH1 101456Z 32006KT 02/M01 A304 RMK A01 T00191011  RH  080%=      5-min Rain = 0
KCH1 101457Z 32005KT 02/M01 A304 RMK A01 T00191012  RH  080%=      5-min Rain = 0
KCH1 101458Z 32006KT 02/M01 A304 RMK A01 T00191013  RH  080%=      5-min Rain = 0
KCH1 101459Z 33005KT 02/M01 A304 RMK A01 T00191012  RH  080%=      5-min Rain = 0
KCH1 101500Z 32006KT 02/M01 A304 RMK A01 T00191011  RH  080%=      5-min Rain = 0
KCH1 101501Z 31005KT 02/M01 A304 RMK A01 T00201012  RH  080%=      5-min Rain = 0
KCH1 101502Z 32006KT 02/M01 A304 RMK A01 T00191012  RH  080%=      5-min Rain = 0
KCH1 101503Z 32004KT 02/M01 A304 RMK A01 T00201011  RH  080%=      5-min Rain = 0
KCH1 101504Z 31004KT 02/M01 A304 RMK A01 T00201010  RH  080%=      5-min Rain = 0
KCH1 101505Z 31006KT 02/M01 A304 RMK A01 T00211008  RH  081%=      5-min Rain = 0
KCH1 101506Z 31006KT 02/M01 A304 RMK A01 T00221010  RH  080%=      5-min Rain = 0
KCH1 101507Z 32006KT 02/M01 A304 RMK A01 T00221010  RH  079%=      5-min Rain = 0
KCH1 101508Z 32006KT 02/M01 A304 RMK A01 T00231010  RH  079%=      5-min Rain = 0
KCH1 101509Z 31005KT 02/M01 A304 RMK A01 T00231010  RH  079%=      5-min Rain = 0
KCH1 101510Z 31005KT 02/M01 A304 RMK A01 T00241009  RH  079%=      5-min Rain = 0
KCH1 101511Z 31004KT 02/M01 A304 RMK A01 T00241008  RH  079%=      5-min Rain = 0
KCH1 101512Z 29003KT 03/M00 A304 RMK A01 T00251004  RH  081%=      5-min Rain = 0
KCH1 101513Z 30005KT 03/M00 A304 RMK A01 T00271002  RH  081%=      5-min Rain = 0
KCH1 101514Z 31004KT 03/M00 A304 RMK A01 T00271004  RH  080%=      5-min Rain = 0
KCH1 101515Z 31005KT 03/M01 A304 RMK A01 T00281005  RH  079%=      5-min Rain = 0
KCH1 101516Z 31003KT 03/M00 A304 RMK A01 T00281004  RH  079%=      5-min Rain = 0
KCH1 101517Z 31003KT 03/M00 A304 RMK A01 T00291002  RH  080%=      5-min Rain = 0
KCH1 101518Z 30005KT 03/M00 A304 RMK A01 T00301002  RH  079%=      5-min Rain = 0
KCH1 101519Z 30005KT 03/M00 A304 RMK A01 T00301004  RH  078%=      5-min Rain = 0
KCH1 101520Z 30006KT 03/M00 A304 RMK A01 T00311002  RH  079%=      5-min Rain = 0
KCH1 101521Z 30004KT 03/M00 A304 RMK A01 T00311002  RH  079%=      5-min Rain = 0
KCH1 101522Z 30004KT 03/M00 A304 RMK A01 T00321002  RH  079%=      5-min Rain = 0
KCH1 101523Z 31003KT 03/00 A304 RMK A01 T00330001  RH  079%=      5-min Rain = 0
KCH1 101524Z 30005KT 04/00 A304 RMK A01 T00350002  RH  079%=      5-min Rain = 0
KCH1 101525Z 30005KT 04/00 A304 RMK A01 T00350001  RH  078%=      5-min Rain = 0
KCH1 101526Z 29005KT 04/00 A304 RMK A01 T00360001  RH  078%=      5-min Rain = 0
KCH1 101527Z 29006KT 04/00 A304 RMK A01 T00360000  RH  078%=      5-min Rain = 0
KCH1 101528Z 31005KT 04/00 A304 RMK A01 T003600-0  RH  077%=      5-min Rain = 0
KCH1 101529Z 29003KT 04/00 A304 RMK A01 T00360002  RH  078%=      5-min Rain = 0
KCH1 101530Z 29004KT 04/01 A304 RMK A01 T00380005  RH  079%=      5-min Rain = 0
KCH1 101531Z 29003KT 04/01 A304 RMK A01 T00390005  RH  078%=      5-min Rain = 0
KCH1 101532Z 31005KT 04/01 A304 RMK A01 T00400006  RH  078%=      5-min Rain = 0
KCH1 101533Z 31004KT 04/01 A304 RMK A01 T00410005  RH  078%=      5-min Rain = 0
KCH1 101534Z 29003KT 04/01 A304 RMK A01 T00410006  RH  078%=      5-min Rain = 0
KCH1 101535Z 31004KT 04/01 A304 RMK A01 T00430008  RH  078%=      5-min Rain = 0
KCH1 101536Z 31006KT 04/01 A304 RMK A01 T00440007  RH  077%=      5-min Rain = 0
KCH1 101537Z 31006KT 04/00 A304 RMK A01 T00440004  RH  075%=      5-min Rain = 0
KCH1 101538Z 31005KT 04/00 A304 RMK A01 T00440004  RH  075%=      5-min Rain = 0
KCH1 101539Z 32006KT 05/01 A304 RMK A01 T00450005  RH  075%=      5-min Rain = 0
KCH1 101540Z 30006KT 05/01 A304 RMK A01 T00450005  RH  075%=      5-min Rain = 0
KCH1 101541Z 31006KT 05/01 A304 RMK A01 T00460006  RH  075%=      5-min Rain = 0
KCH1 101542Z 30005KT 05/01 A304 RMK A01 T00460006  RH  075%=      5-min Rain = 0
KCH1 101543Z 30005KT 05/01 A304 RMK A01 T00470009  RH  076%=      5-min Rain = 0
KCH1 101544Z 29005KT 05/01 A304 RMK A01 T00480006  RH  074%=      5-min Rain = 0
KCH1 101545Z 29005KT 05/01 A304 RMK A01 T00480005  RH  074%=      5-min Rain = 0
KCH1 101546Z 30004KT 05/01 A304 RMK A01 T00480007  RH  075%=      5-min Rain = 0
KCH1 101547Z 29005KT 05/01 A304 RMK A01 T00480006  RH  074%=      5-min Rain = 0
KCH1 101548Z 29005KT 05/01 A304 RMK A01 T00480007  RH  075%=      5-min Rain = 0
KCH1 101549Z 29004KT 05/01 A304 RMK A01 T00490008  RH  075%=      5-min Rain = 0
KCH1 101550Z 29004KT 05/01 A304 RMK A01 T00510010  RH  075%=      5-min Rain = 0
KCH1 101551Z 30003KT 05/01 A304 RMK A01 T00520011  RH  075%=      5-min Rain = 0
KCH1 101552Z 28004KT 05/01 A304 RMK A01 T00540010  RH  074%=      5-min Rain = 0
KCH1 101553Z 29005KT 05/01 A304 RMK A01 T00540008  RH  073%=      5-min Rain = 0
KCH1 101554Z 28005KT 05/01 A304 RMK A01 T00540008  RH  072%=      5-min Rain = 0
KCH1 101555Z 28005KT 05/01 A304 RMK A01 T00540009  RH  073%=      5-min Rain = 0
KCH1 101556Z 30004KT 06/01 A304 RMK A01 T00550010  RH  073%=      5-min Rain = 0
KCH1 101557Z 29004KT 06/01 A304 RMK A01 T00570014  RH  074%=      5-min Rain = 0
KCH1 101558Z 29004KT 06/01 A304 RMK A01 T00580013  RH  072%=      5-min Rain = 0
KCH1 101559Z 32005KT 06/01 A304 RMK A01 T00580011  RH  071%=      5-min Rain = 0
KCH1 101600Z 32006KT 06/01 A304 RMK A01 T00580010  RH  071%=      5-min Rain = 0
KCH1 101601Z 32005KT 06/01 A304 RMK A01 T00580010  RH  071%=      5-min Rain = 0
KCH1 101602Z 32005KT 06/01 A3041 RMK A01 T00580009  RH  071%=      5-min Rain = 0
KCH1 101603Z 32004KT 06/01 A3041 RMK A01 T00580008  RH  070%=      5-min Rain = 0
KCH1 101604Z 31003KT 06/01 A3041 RMK A01 T00580009  RH  071%=      5-min Rain = 0
KCH1 101605Z 30004KT 06/01 A3041 RMK A01 T00590013  RH  072%=      5-min Rain = 0
KCH1 101606Z 32004KT 06/01 A3041 RMK A01 T00610013  RH  071%=      5-min Rain = 0
KCH1 101607Z 32006KT 06/01 A3041 RMK A01 T00610011  RH  070%=      5-min Rain = 0
KCH1 101608Z 32005KT 06/01 A3041 RMK A01 T00610010  RH  070%=      5-min Rain = 0
KCH1 101609Z 31005KT 06/01 A3041 RMK A01 T00610011  RH  070%=      5-min Rain = 0
KCH1 101610Z 30005KT 06/01 A3041 RMK A01 T00620013  RH  071%=      5-min Rain = 0
KCH1 101611Z 32004KT 06/01 A3041 RMK A01 T00630011  RH  070%=      5-min Rain = 0
KCH1 101612Z 32004KT 06/01 A3041 RMK A01 T00620010  RH  069%=      5-min Rain = 0
KCH1 101613Z 30003KT 06/01 A3041 RMK A01 T00630012  RH  070%=      5-min Rain = 0
KCH1 101614Z 31004KT 07/02 A3041 RMK A01 T00660015  RH  070%=      5-min Rain = 0
KCH1 101615Z 32005KT 07/01 A3041 RMK A01 T00670012  RH  068%=      5-min Rain = 0
KCH1 101616Z 31006KT 07/01 A3041 RMK A01 T00670011  RH  068%=      5-min Rain = 0
KCH1 101617Z 31005KT 07/01 A3041 RMK A01 T00670010  RH  067%=      5-min Rain = 0
KCH1 101618Z 31006KT 07/01 A3041 RMK A01 T00670010  RH  067%=      5-min Rain = 0
KCH1 101619Z 31006KT 07/01 A3041 RMK A01 T00670010  RH  067%=      5-min Rain = 0
KCH1 101620Z 31005KT 07/01 A3041 RMK A01 T00670009  RH  066%=      5-min Rain = 0
KCH1 101621Z 31005KT 07/01 A3041 RMK A01 T00680010  RH  067%=      5-min Rain = 0
KCH1 101622Z 29003KT 07/01 A3041 RMK A01 T00700014  RH  068%=      5-min Rain = 0
KCH1 101623Z 29004KT 07/02 A3041 RMK A01 T00730018  RH  068%=      5-min Rain = 0
KCH1 101624Z 30005KT 08/01 A3041 RMK A01 T00750012  RH  064%=      5-min Rain = 0
KCH1 101625Z 28005KT 07/01 A3041 RMK A01 T00740012  RH  064%=      5-min Rain = 0
KCH1 101626Z 31003KT 08/02 A3041 RMK A01 T00760016  RH  066%=      5-min Rain = 0
KCH1 101627Z 31003KT 08/02 A3041 RMK A01 T00780017  RH  065%=      5-min Rain = 0
KCH1 101628Z 31006KT 08/02 A304 RMK A01 T00810016  RH  064%=      5-min Rain = 0
KCH1 101629Z 31005KT 08/01 A304 RMK A01 T00790008  RH  061%=      5-min Rain = 0
KCH1 101630Z 31007KT 08/01 A304 RMK A01 T00780009  RH  062%=      5-min Rain = 0
KCH1 101631Z 31006KT 08/01 A304 RMK A01 T00780009  RH  062%=      5-min Rain = 0
KCH1 101632Z 32007KT 08/01 A304 RMK A01 T00780010  RH  062%=      5-min Rain = 0
KCH1 101633Z 31007KT 08/01 A304 RMK A01 T00780009  RH  062%=      5-min Rain = 0
KCH1 101634Z 31005KT 08/01 A304 RMK A01 T00790008  RH  061%=      5-min Rain = 0
KCH1 101635Z 30005KT 08/01 A304 RMK A01 T00790009  RH  061%=      5-min Rain = 0
KCH1 101636Z 30005KT 08/01 A304 RMK A01 T00800011  RH  062%=      5-min Rain = 0
KCH1 101637Z 31007KT 08/01 A304 RMK A01 T00810009  RH  060%=      5-min Rain = 0
KCH1 101638Z 31007KT 08/01 A304 RMK A01 T00810007  RH  060%=      5-min Rain = 0
KCH1 101639Z 30006KT 08/01 A304 RMK A01 T00800007  RH  060%=      5-min Rain = 0
KCH1 101640Z 30006KT 08/01 A304 RMK A01 T00810010  RH  061%=      5-min Rain = 0
KCH1 101641Z 31004KT 08/01 A304 RMK A01 T00810009  RH  060%=      5-min Rain = 0
KCH1 101642Z 32004KT 08/01 A304 RMK A01 T00820013  RH  062%=      5-min Rain = 0
KCH1 101643Z 29003KT 09/01 A304 RMK A01 T00850013  RH  061%=      5-min Rain = 0
KCH1 101644Z 27003KT 09/01 A304 RMK A01 T00850013  RH  060%=      5-min Rain = 0
KCH1 101645Z 29005KT 09/01 A304 RMK A01 T00860014  RH  061%=      5-min Rain = 0
KCH1 101646Z 29004KT 09/01 A304 RMK A01 T00860014  RH  061%=      5-min Rain = 0
KCH1 101647Z 29004KT 09/02 A304 RMK A01 T00880016  RH  061%=      5-min Rain = 0
KCH1 101648Z 31006KT 09/02 A304 RMK A01 T00890017  RH  061%=      5-min Rain = 0
KCH1 101649Z 32007KT 09/01 A304 RMK A01 T00900011  RH  058%=      5-min Rain = 0
KCH1 101650Z 32006KT 09/01 A304 RMK A01 T00890011  RH  058%=      5-min Rain = 0
KCH1 101651Z 32006KT 09/01 A304 RMK A01 T00890009  RH  057%=      5-min Rain = 0
KCH1 101652Z 33007KT 09/01 A304 RMK A01 T00890011  RH  058%=      5-min Rain = 0
KCH1 101653Z 32006KT 09/01 A304 RMK A01 T00900014  RH  059%=      5-min Rain = 0
KCH1 101654Z 33007KT 09/01 A304 RMK A01 T00910010  RH  057%=      5-min Rain = 0
KCH1 101655Z 32006KT 09/01 A304 RMK A01 T00910011  RH  057%=      5-min Rain = 0
KCH1 101656Z 30005KT 09/01 A304 RMK A01 T00910014  RH  058%=      5-min Rain = 0
KCH1 101657Z 30005KT 09/01 A304 RMK A01 T00920014  RH  058%=      5-min Rain = 0
KCH1 101658Z 33005KT 09/02 A304 RMK A01 T00920016  RH  059%=      5-min Rain = 0
KCH1 101659Z 32007KT 09/02 A304 RMK A01 T00930017  RH  059%=      5-min Rain = 0
KCH1 101700Z 32006KT 09/01 A304 RMK A01 T00940014  RH  057%=      5-min Rain = 0
KCH1 101701Z 31004KT 09/02 A304 RMK A01 T00940016  RH  058%=      5-min Rain = 0
KCH1 101702Z 29006KT 10/02 A3039 RMK A01 T00960017  RH  058%=      5-min Rain = 0
KCH1 101703Z 30004KT 10/01 A3039 RMK A01 T00960012  RH  056%=      5-min Rain = 0
KCH1 101704Z 34005KT 09/01 A3039 RMK A01 T00940012  RH  056%=      5-min Rain = 0
KCH1 101705Z 30005KT 10/02 A3039 RMK A01 T00950015  RH  057%=      5-min Rain = 0
KCH1 101706Z 29005KT 10/01 A3039 RMK A01 T00970010  RH  055%=      5-min Rain = 0
KCH1 101707Z 30006KT 10/01 A3039 RMK A01 T00970011  RH  055%=      5-min Rain = 0
KCH1 101708Z 31004KT 10/01 A3039 RMK A01 T00970008  RH  054%=      5-min Rain = 0
KCH1 101709Z 32005KT 10/01 A3039 RMK A01 T00970011  RH  055%=      5-min Rain = 0
KCH1 101710Z 31005KT 10/01 A3039 RMK A01 T00980011  RH  054%=      5-min Rain = 0
KCH1 101711Z 31005KT 10/01 A3039 RMK A01 T00990009  RH  054%=      5-min Rain = 0
KCH1 101712Z 31004KT 10/01 A3039 RMK A01 T00990008  RH  053%=      5-min Rain = 0
KCH1 101713Z 31006KT 10/01 A3039 RMK A01 T00990009  RH  054%=      5-min Rain = 0
KCH1 101714Z 31004KT 10/01 A3039 RMK A01 T01000007  RH  053%=      5-min Rain = 0
KCH1 101715Z 31005KT 10/01 A3039 RMK A01 T01010009  RH  053%=      5-min Rain = 0
KCH1 101716Z 30006KT 10/01 A3039 RMK A01 T01010006  RH  052%=      5-min Rain = 0
KCH1 101717Z 33006KT 10/01 A3039 RMK A01 T01000006  RH  052%=      5-min Rain = 0
KCH1 101718Z 30007KT 10/01 A3039 RMK A01 T01010009  RH  053%=      5-min Rain = 0
KCH1 101719Z 30007KT 10/01 A3039 RMK A01 T01020008  RH  052%=      5-min Rain = 0
KCH1 101720Z 29006KT 10/01 A3039 RMK A01 T01020007  RH  052%=      5-min Rain = 0
KCH1 101721Z 30006KT 10/01 A3039 RMK A01 T01010008  RH  052%=      5-min Rain = 0
KCH1 101722Z 30008KT 10/01 A3038 RMK A01 T01020007  RH  052%=      5-min Rain = 0
KCH1 101723Z 30007KT 10/01 A3038 RMK A01 T01020007  RH  052%=      5-min Rain = 0
KCH1 101724Z 30006KT 10/01 A3038 RMK A01 T01040009  RH  052%=      5-min Rain = 0
KCH1 101725Z 30007KT 11/01 A3038 RMK A01 T01050007  RH  050%=      5-min Rain = 0
KCH1 101726Z 29006KT 11/01 A3038 RMK A01 T01060006  RH  050%=      5-min Rain = 0
KCH1 101727Z 30005KT 11/00 A3038 RMK A01 T01050003  RH  049%=      5-min Rain = 0
KCH1 101728Z 29006KT 11/01 A3038 RMK A01 T01050007  RH  051%=      5-min Rain = 0
KCH1 101729Z 30007KT 11/01 A3038 RMK A01 T01080008  RH  050%=      5-min Rain = 0
KCH1 101730Z 30007KT 11/00 A3038 RMK A01 T01070002  RH  048%=      5-min Rain = 0
KCH1 101731Z 30007KT 11/00 A3038 RMK A01 T01050002  RH  049%=      5-min Rain = 0
KCH1 101732Z 32005KT 11/00 A3038 RMK A01 T01050004  RH  049%=      5-min Rain = 0
KCH1 101733Z 31007KT 11/01 A3038 RMK A01 T01070005  RH  049%=      5-min Rain = 0
KCH1 101734Z 32007KT 11/00 A3038 RMK A01 T01070004  RH  049%=      5-min Rain = 0
KCH1 101735Z 30007KT 11/01 A3038 RMK A01 T01070005  RH  049%=      5-min Rain = 0
KCH1 101736Z 29006KT 11/00 A3038 RMK A01 T01070004  RH  049%=      5-min Rain = 0
KCH1 101737Z 29005KT 11/00 A3038 RMK A01 T01070000  RH  047%=      5-min Rain = 0
KCH1 101738Z 30005KT 11/00 A3038 RMK A01 T01070002  RH  048%=      5-min Rain = 0
KCH1 101739Z 30007KT 11/00 A3038 RMK A01 T01080004  RH  049%=      5-min Rain = 0
KCH1 101740Z 29006KT 11/00 A3038 RMK A01 T01090003  RH  048%=      5-min Rain = 0
KCH1 101741Z 30007KT 11/01 A3038 RMK A01 T01100006  RH  049%=      5-min Rain = 0
KCH1 101742Z 30007KT 11/00 A3038 RMK A01 T01110002  RH  047%=      5-min Rain = 0
KCH1 101743Z 33006KT 11/00 A3038 RMK A01 T01100002  RH  047%=      5-min Rain = 0
KCH1 101744Z 31006KT 11/00 A3038 RMK A01 T01110003  RH  047%=      5-min Rain = 0
KCH1 101745Z 29005KT 11/00 A3038 RMK A01 T01110002  RH  047%=      5-min Rain = 0
KCH1 101746Z 31006KT 11/01 A3038 RMK A01 T01110006  RH  049%=      5-min Rain = 0
KCH1 101747Z 30008KT 11/01 A3038 RMK A01 T01130006  RH  048%=      5-min Rain = 0
KCH1 101748Z 30006KT 11/00 A3038 RMK A01 T01110003  RH  047%=      5-min Rain = 0
KCH1 101749Z 28005KT 11/01 A3038 RMK A01 T01100005  RH  048%=      5-min Rain = 0
KCH1 101750Z 29003KT 11/01 A3037 RMK A01 T01100008  RH  049%=      5-min Rain = 0
KCH1 101751Z 28005KT 11/01 A3037 RMK A01 T01120011  RH  050%=      5-min Rain = 0
KCH1 101752Z 28004KT 11/01 A3037 RMK A01 T01120009  RH  049%=      5-min Rain = 0
KCH1 101753Z 28005KT 11/01 A3037 RMK A01 T01120007  RH  048%=      5-min Rain = 0
KCH1 101754Z 26004KT 11/01 A3037 RMK A01 T01110007  RH  049%=      5-min Rain = 0
KCH1 101755Z 28005KT 11/01 A3037 RMK A01 T01110010  RH  050%=      5-min Rain = 0
KCH1 101756Z 28006KT 11/01 A3037 RMK A01 T01130009  RH  049%=      5-min Rain = 0
KCH1 101757Z 28005KT 11/01 A3037 RMK A01 T01120007  RH  048%=      5-min Rain = 0
KCH1 101758Z 29005KT 11/00 A3037 RMK A01 T01100004  RH  048%=      5-min Rain = 0
KCH1 101759Z 30003KT 11/01 A3037 RMK A01 T01090006  RH  049%=      5-min Rain = 0
KCH1 101800Z 29003KT 11/01 A3037 RMK A01 T01100006  RH  049%=      5-min Rain = 0
KCH1 101801Z 28003KT 11/01 A3037 RMK A01 T01120008  RH  049%=      5-min Rain = 0
KCH1 101802Z 30004KT 11/01 A3037 RMK A01 T01130008  RH  048%=      5-min Rain = 0
KCH1 101803Z 28003KT 11/01 A3037 RMK A01 T01140006  RH  047%=      5-min Rain = 0
KCH1 101804Z 25002KT 11/00 A3037 RMK A01 T01130004  RH  047%=      5-min Rain = 0
KCH1 101805Z 28003KT 11/01 A3037 RMK A01 T01120005  RH  048%=      5-min Rain = 0
KCH1 101806Z 29004KT 12/01 A3037 RMK A01 T01150007  RH  047%=      5-min Rain = 0
KCH1 101807Z 30005KT 12/01 A3037 RMK A01 T01160006  RH  047%=      5-min Rain = 0
KCH1 101808Z 28004KT 12/01 A3037 RMK A01 T01180008  RH  047%=      5-min Rain = 0
KCH1 101809Z 27004KT 12/01 A3037 RMK A01 T01180006  RH  046%=      5-min Rain = 0
KCH1 101810Z 29006KT 12/01 A3037 RMK A01 T01190006  RH  046%=      5-min Rain = 0
KCH1 101811Z 31005KT 12/00 A3037 RMK A01 T01190002  RH  044%=      5-min Rain = 0
KCH1 101812Z 30006KT 12/00 A3037 RMK A01 T01190004  RH  045%=      5-min Rain = 0
KCH1 101813Z 30005KT 12/00 A3037 RMK A01 T01190003  RH  045%=      5-min Rain = 0
KCH1 101814Z 29006KT 12/01 A3036 RMK A01 T01190005  RH  046%=      5-min Rain = 0
KCH1 101815Z 29006KT 12/00 A3036 RMK A01 T01200002  RH  044%=      5-min Rain = 0
KCH1 101816Z 28006KT 12/00 A3036 RMK A01 T011800-0  RH  044%=      5-min Rain = 0
KCH1 101817Z 30006KT 12/00 A3036 RMK A01 T011500-0  RH  045%=      5-min Rain = 0
KCH1 101818Z 29006KT 12/00 A3036 RMK A01 T01170004  RH  046%=      5-min Rain = 0
KCH1 101819Z 30006KT 12/00 A3036 RMK A01 T01200004  RH  045%=      5-min Rain = 0
KCH1 101820Z 30006KT 12/00 A3036 RMK A01 T01200001  RH  044%=      5-min Rain = 0
KCH1 101821Z 30005KT 12/00 A3036 RMK A01 T01190000  RH  044%=      5-min Rain = 0
KCH1 101822Z 29006KT 12/00 A3036 RMK A01 T01200002  RH  044%=      5-min Rain = 0
KCH1 101823Z 27007KT 12/00 A3036 RMK A01 T01220003  RH  044%=      5-min Rain = 0
KCH1 101824Z 28006KT 12/00 A3036 RMK A01 T01230000  RH  043%=      5-min Rain = 0
KCH1 101825Z 28007KT 12/M01 A3036 RMK A01 T01221005  RH  042%=      5-min Rain = 0
KCH1 101826Z 29006KT 12/M00 A3036 RMK A01 T01201003  RH  043%=      5-min Rain = 0
KCH1 101827Z 28009KT 12/M00 A3036 RMK A01 T01211003  RH  042%=      5-min Rain = 0
KCH1 101828Z 28009KT 12/M00 A3036 RMK A01 T01221003  RH  042%=      5-min Rain = 0
KCH1 101829Z 29009KT 12/M00 A3036 RMK A01 T01221004  RH  042%=      5-min Rain = 0
KCH1 101830Z 29007KT 12/M01 A3036 RMK A01 T01221006  RH  041%=      5-min Rain = 0
KCH1 101831Z 28006KT 12/M01 A3036 RMK A01 T01221008  RH  041%=      5-min Rain = 0
KCH1 101832Z 29004KT 12/M01 A3036 RMK A01 T01211006  RH  041%=      5-min Rain = 0
KCH1 101833Z 27004KT 12/M01 A3035 RMK A01 T01221005  RH  041%=      5-min Rain = 0
KCH1 101834Z 30003KT 12/M00 A3036 RMK A01 T01241003  RH  042%=      5-min Rain = 0
KCH1 101835Z 30007KT 13/M00 A3035 RMK A01 T01261001  RH  041%=      5-min Rain = 0
KCH1 101836Z 30004KT 13/M00 A3035 RMK A01 T01271002  RH  041%=      5-min Rain = 0
KCH1 101837Z 30004KT 13/M00 A3035 RMK A01 T01281001  RH  041%=      5-min Rain = 0
KCH1 101838Z 27003KT 13/00 A3035 RMK A01 T01310002  RH  041%=      5-min Rain = 0
KCH1 101839Z 29007KT 13/00 A3035 RMK A01 T01320001  RH  041%=      5-min Rain = 0
KCH1 101840Z 29007KT 13/M01 A3035 RMK A01 T01301007  RH  039%=      5-min Rain = 0
KCH1 101841Z 30007KT 13/M01 A3035 RMK A01 T01281009  RH  039%=      5-min Rain = 0
KCH1 101842Z 29006KT 13/M01 A3035 RMK A01 T01271005  RH  040%=      5-min Rain = 0
KCH1 101843Z 30005KT 13/M00 A3035 RMK A01 T01291002  RH  041%=      5-min Rain = 0
KCH1 101844Z 31007KT 13/M00 A3035 RMK A01 T01311002  RH  040%=      5-min Rain = 0
KCH1 101845Z 30007KT 13/M01 A3035 RMK A01 T01301007  RH  039%=      5-min Rain = 0
KCH1 101846Z 33006KT 13/M01 A3035 RMK A01 T01291008  RH  039%=      5-min Rain = 0
KCH1 101847Z 33006KT 13/M01 A3035 RMK A01 T01281009  RH  039%=      5-min Rain = 0
KCH1 101848Z 32008KT 13/M01 A3035 RMK A01 T01271010  RH  039%=      5-min Rain = 0
KCH1 101849Z 32008KT 13/M01 A3035 RMK A01 T01271013  RH  038%=      5-min Rain = 0
KCH1 101850Z 30006KT 13/M01 A3035 RMK A01 T01271012  RH  038%=      5-min Rain = 0
KCH1 101851Z 31006KT 13/M01 A3035 RMK A01 T01281006  RH  040%=      5-min Rain = 0
KCH1 101852Z 32005KT 13/M01 A3035 RMK A01 T01291011  RH  038%=      5-min Rain = 0
KCH1 101853Z 30005KT 13/M01 A3035 RMK A01 T01281008  RH  039%=      5-min Rain = 0
KCH1 101854Z 31007KT 13/M01 A3035 RMK A01 T01291009  RH  038%=      5-min Rain = 0
KCH1 101855Z 31007KT 13/M01 A3035 RMK A01 T01281014  RH  037%=      5-min Rain = 0
KCH1 101856Z 31005KT 13/M01 A3034 RMK A01 T01261013  RH  038%=      5-min Rain = 0
KCH1 101857Z 32005KT 13/M01 A3034 RMK A01 T01281005  RH  040%=      5-min Rain = 0
KCH1 101858Z 32006KT 13/M01 A3034 RMK A01 T01311012  RH  037%=      5-min Rain = 0
KCH1 101859Z 33007KT 13/M01 A3034 RMK A01 T01281012  RH  038%=      5-min Rain = 0
KCH1 101900Z 32007KT 13/M01 A3034 RMK A01 T01291012  RH  038%=      5-min Rain = 0
KCH1 101901Z 31006KT 13/M02 A3034 RMK A01 T01271015  RH  037%=      5-min Rain = 0
KCH1 101902Z 30005KT 13/M02 A3034 RMK A01 T01261015  RH  038%=      5-min Rain = 0
KCH1 101903Z 32007KT 13/M01 A3034 RMK A01 T01251014  RH  038%=      5-min Rain = 0
KCH1 101904Z 32006KT 13/M01 A3034 RMK A01 T01251013  RH  038%=      5-min Rain = 0
KCH1 101905Z 30005KT 13/M01 A3034 RMK A01 T01261012  RH  038%=      5-min Rain = 0
KCH1 101906Z 29005G10KT 13/M01 A3034 RMK A01 T01271009  RH  039%=      5-min Rain = 0
KCH1 101907Z 29006KT 13/M01 A3034 RMK A01 T01291008  RH  039%=      5-min Rain = 0
KCH1 101908Z 27004KT 13/M01 A3034 RMK A01 T01301005  RH  039%=      5-min Rain = 0
KCH1 101909Z 32007KT 13/M00 A3034 RMK A01 T01321004  RH  039%=      5-min Rain = 0
KCH1 101910Z 31007KT 13/M01 A3034 RMK A01 T01321007  RH  038%=      5-min Rain = 0
KCH1 101911Z 33006KT 13/M01 A3034 RMK A01 T01311008  RH  038%=      5-min Rain = 0
KCH1 101912Z 33006KT 13/M01 A3034 RMK A01 T01311009  RH  038%=      5-min Rain = 0
KCH1 101913Z 31006KT 13/M01 A3034 RMK A01 T01311010  RH  038%=      5-min Rain = 0
KCH1 101914Z 32006KT 13/M01 A3034 RMK A01 T01311009  RH  038%=      5-min Rain = 0
KCH1 101915Z 34006KT 13/M01 A3034 RMK A01 T01301011  RH  038%=      5-min Rain = 0
KCH1 101916Z 33004KT 13/M01 A3034 RMK A01 T01311009  RH  038%=      5-min Rain = 0
KCH1 101917Z 31005KT 13/M01 A3034 RMK A01 T01311009  RH  038%=      5-min Rain = 0
KCH1 101918Z 32006KT 13/M01 A3033 RMK A01 T01321007  RH  039%=      5-min Rain = 0
KCH1 101919Z 31005KT 13/M01 A3033 RMK A01 T01301010  RH  038%=      5-min Rain = 0
KCH1 101920Z 28006KT 13/M01 A3033 RMK A01 T01311005  RH  039%=      5-min Rain = 0
KCH1 101921Z 28005KT 13/M01 A3033 RMK A01 T01321010  RH  038%=      5-min Rain = 0
KCH1 101922Z 28005KT 13/M01 A3033 RMK A01 T01301008  RH  039%=      5-min Rain = 0
KCH1 101923Z 28005KT 13/M01 A3033 RMK A01 T01301006  RH  039%=      5-min Rain = 0
KCH1 101924Z 30005KT 13/M00 A3033 RMK A01 T01311004  RH  040%=      5-min Rain = 0
KCH1 101925Z 30004KT 13/M01 A3033 RMK A01 T01311007  RH  038%=      5-min Rain = 0
KCH1 101926Z 26004KT 13/M00 A3033 RMK A01 T01311003  RH  040%=      5-min Rain = 0
KCH1 101927Z 26004KT 13/M00 A3033 RMK A01 T01331004  RH  039%=      5-min Rain = 0
KCH1 101928Z 27005KT 13/M01 A3033 RMK A01 T01321005  RH  039%=      5-min Rain = 0
KCH1 101929Z 27005KT 13/M00 A3033 RMK A01 T01311004  RH  039%=      5-min Rain = 0
KCH1 101930Z 31007KT 13/M00 A3033 RMK A01 T01331002  RH  040%=      5-min Rain = 0
KCH1 101931Z 30006KT 13/M01 A3033 RMK A01 T01321009  RH  038%=      5-min Rain = 0
KCH1 101932Z 30004KT 13/M01 A3033 RMK A01 T01301007  RH  039%=      5-min Rain = 0
KCH1 101933Z 31005KT 13/M00 A3033 RMK A01 T01311004  RH  039%=      5-min Rain = 0
KCH1 101934Z 29006KT 13/M01 A3033 RMK A01 T01321006  RH  039%=      5-min Rain = 0
KCH1 101935Z 29005KT 13/M01 A3033 RMK A01 T01311008  RH  038%=      5-min Rain = 0
KCH1 101936Z 30007KT 13/M01 A3033 RMK A01 T01301005  RH  039%=      5-min Rain = 0
KCH1 101937Z 29007KT 13/M01 A3033 RMK A01 T01301007  RH  039%=      5-min Rain = 0
KCH1 101938Z 27004KT 13/M01 A3033 RMK A01 T01291008  RH  039%=      5-min Rain = 0
KCH1 101939Z 26003KT 13/M01 A3033 RMK A01 T01281007  RH  039%=      5-min Rain = 0
KCH1 101940Z 27005KT 13/M01 A3033 RMK A01 T01291005  RH  040%=      5-min Rain = 0
KCH1 101941Z 26004KT 13/M00 A3033 RMK A01 T01301003  RH  040%=      5-min Rain = 0
KCH1 101942Z 27006KT 13/M00 A3033 RMK A01 T01311001  RH  040%=      5-min Rain = 0
KCH1 101943Z 29008KT 13/M00 A3033 RMK A01 T01321002  RH  040%=      5-min Rain = 0
KCH1 101944Z 29008KT 13/M00 A3033 RMK A01 T01321002  RH  040%=      5-min Rain = 0
KCH1 101945Z 30006KT 13/M00 A3033 RMK A01 T01321003  RH  039%=      5-min Rain = 0
KCH1 101946Z 29006KT 13/M00 A3033 RMK A01 T01321002  RH  040%=      5-min Rain = 0
KCH1 101947Z 27006KT 13/M00 A3033 RMK A01 T01321003  RH  039%=      5-min Rain = 0
KCH1 101948Z 28008KT 13/M01 A3033 RMK A01 T01321005  RH  039%=      5-min Rain = 0
KCH1 101949Z 29005KT 13/M01 A3033 RMK A01 T01301009  RH  038%=      5-min Rain = 0
KCH1 101950Z 27006KT 13/M01 A3033 RMK A01 T01291005  RH  040%=      5-min Rain = 0
KCH1 101951Z 28007KT 13/M00 A3033 RMK A01 T01311002  RH  040%=      5-min Rain = 0
KCH1 101952Z 28006KT 13/M01 A3033 RMK A01 T01311008  RH  038%=      5-min Rain = 0
KCH1 101953Z 28005KT 13/M01 A3033 RMK A01 T01291005  RH  040%=      5-min Rain = 0
KCH1 101954Z 29005KT 13/M00 A3033 RMK A01 T01311002  RH  040%=      5-min Rain = 0
KCH1 101955Z 32004KT 13/M00 A3033 RMK A01 T01331002  RH  039%=      5-min Rain = 0
KCH1 101956Z 31003KT 13/M01 A3032 RMK A01 T01341005  RH  038%=      5-min Rain = 0
KCH1 101957Z 29003KT 13/M01 A3032 RMK A01 T01341005  RH  038%=      5-min Rain = 0
KCH1 101958Z 25005KT 14/M00 A3032 RMK A01 T01351004  RH  038%=      5-min Rain = 0
KCH1 101959Z 26005KT 14/00 A3032 RMK A01 T013500-0  RH  039%=      5-min Rain = 0
KCH1 102000Z 25005KT 14/M00 A3032 RMK A01 T01361001  RH  039%=      5-min Rain = 0
KCH1 102001Z 27003KT 14/M00 A3032 RMK A01 T01371002  RH  039%=      5-min Rain = 0
KCH1 102002Z 31006KT 14/00 A3032 RMK A01 T01370001  RH  039%=      5-min Rain = 0
KCH1 102003Z 32006KT 14/M00 A3032 RMK A01 T01381003  RH  038%=      5-min Rain = 0
KCH1 102004Z 31005KT 14/M00 A3032 RMK A01 T01381001  RH  039%=      5-min Rain = 0
KCH1 102005Z 33007KT 14/M01 A3032 RMK A01 T01371006  RH  037%=      5-min Rain = 0
KCH1 102006Z 30005KT 13/M01 A3032 RMK A01 T01341010  RH  037%=      5-min Rain = 0
KCH1 102007Z 30006KT 13/M01 A3032 RMK A01 T01331006  RH  038%=      5-min Rain = 0
KCH1 102008Z 31004KT 13/M01 A3032 RMK A01 T01331009  RH  037%=      5-min Rain = 0
KCH1 102009Z 30008KT 13/M01 A3032 RMK A01 T01321008  RH  038%=      5-min Rain = 0
KCH1 102010Z 29006KT 13/M00 A3032 RMK A01 T01331004  RH  039%=      5-min Rain = 0
KCH1 102011Z 28007KT 13/M00 A3032 RMK A01 T01341003  RH  039%=      5-min Rain = 0
KCH1 102012Z 29005KT 14/M01 A3032 RMK A01 T01351008  RH  037%=      5-min Rain = 0
KCH1 102013Z 26006KT 13/M01 A3032 RMK A01 T01341007  RH  038%=      5-min Rain = 0
KCH1 102014Z 27007KT 13/M01 A3032 RMK A01 T01341007  RH  038%=      5-min Rain = 0
KCH1 102015Z 29005KT 13/M01 A3032 RMK A01 T01341005  RH  038%=      5-min Rain = 0
KCH1 102016Z 29003KT 14/M01 A3032 RMK A01 T01351006  RH  038%=      5-min Rain = 0
KCH1 102017Z 28007KT 14/M01 A3032 RMK A01 T01351005  RH  038%=      5-min Rain = 0
KCH1 102018Z 30006KT 14/M01 A3032 RMK A01 T01351007  RH  038%=      5-min Rain = 0
KCH1 102019Z 30003KT 14/M00 A3032 RMK A01 T01351004  RH  038%=      5-min Rain = 0
KCH1 102020Z 26003KT 14/M00 A3032 RMK A01 T01361001  RH  039%=      5-min Rain = 0
KCH1 102021Z 26005KT 14/M00 A3032 RMK A01 T01381002  RH  038%=      5-min Rain = 0
KCH1 102022Z 26004KT 14/M01 A3032 RMK A01 T01391006  RH  037%=      5-min Rain = 0
KCH1 102023Z 27003KT 14/M00 A3032 RMK A01 T01391004  RH  037%=      5-min Rain = 0
KCH1 102024Z 29007KT 14/M00 A3032 RMK A01 T01391001  RH  038%=      5-min Rain = 0
KCH1 102025Z 30005KT 14/M00 A3032 RMK A01 T01401001  RH  038%=      5-min Rain = 0
KCH1 102026Z 31006KT 14/M00 A3032 RMK A01 T01391002  RH  038%=      5-min Rain = 0
KCH1 102027Z 31004KT 14/M01 A3032 RMK A01 T01391010  RH  036%=      5-min Rain = 0
KCH1 102028Z 31006KT 14/M01 A3032 RMK A01 T01371009  RH  037%=      5-min Rain = 0
KCH1 102029Z 31006KT 14/M01 A3032 RMK A01 T01361010  RH  036%=      5-min Rain = 0
KCH1 102030Z 33006KT 14/M01 A3032 RMK A01 T01351009  RH  037%=      5-min Rain = 0
KCH1 102031Z 34005KT 14/M01 A3032 RMK A01 T01351009  RH  037%=      5-min Rain = 0
KCH1 102032Z 31005KT 14/M01 A3032 RMK A01 T01361007  RH  037%=      5-min Rain = 0
KCH1 102033Z 28008KT 14/M00 A3032 RMK A01 T01371002  RH  038%=      5-min Rain = 0
KCH1 102034Z 29005KT 14/M01 A3032 RMK A01 T01371006  RH  037%=      5-min Rain = 0
KCH1 102035Z 30004KT 13/M01 A3032 RMK A01 T01341010  RH  037%=      5-min Rain = 0
KCH1 102036Z 27004KT 13/M01 A3032 RMK A01 T01331006  RH  038%=      5-min Rain = 0
KCH1 102037Z 28006KT 14/M01 A3032 RMK A01 T01361005  RH  038%=      5-min Rain = 0
KCH1 102038Z 29005KT 14/M01 A3032 RMK A01 T01351008  RH  037%=      5-min Rain = 0
KCH1 102039Z 32005KT 13/M01 A3032 RMK A01 T01341005  RH  038%=      5-min Rain = 0
KCH1 102040Z 31005KT 14/M01 A3032 RMK A01 T01361005  RH  038%=      5-min Rain = 0
KCH1 102041Z 31003KT 14/M01 A3032 RMK A01 T01371009  RH  037%=      5-min Rain = 0
KCH1 102042Z 32005KT 14/M01 A3032 RMK A01 T01371007  RH  037%=      5-min Rain = 0
KCH1 102043Z 30006KT 14/M01 A3032 RMK A01 T01371009  RH  037%=      5-min Rain = 0
KCH1 102044Z 28004KT 14/M01 A3032 RMK A01 T01361010  RH  037%=      5-min Rain = 0
KCH1 102045Z 27006KT 14/M01 A3032 RMK A01 T01351010  RH  037%=      5-min Rain = 0
KCH1 102046Z 30004KT 14/M01 A3032 RMK A01 T01351008  RH  037%=      5-min Rain = 0
KCH1 102047Z 28002KT 14/M01 A3032 RMK A01 T01381005  RH  037%=      5-min Rain = 0
KCH1 102048Z 27002KT 14/M01 A3032 RMK A01 T01401009  RH  036%=      5-min Rain = 0
KCH1 102049Z 27004KT 14/M01 A3032 RMK A01 T01411008  RH  036%=      5-min Rain = 0
KCH1 102050Z 29003KT 14/M01 A3032 RMK A01 T01401011  RH  035%=      5-min Rain = 0
KCH1 102051Z 27001KT 14/M01 A3032 RMK A01 T01391009  RH  036%=      5-min Rain = 0
KCH1 102052Z 28002KT 14/M01 A3032 RMK A01 T01391010  RH  036%=      5-min Rain = 0
KCH1 102053Z 29002KT 14/M01 A3032 RMK A01 T01401008  RH  036%=      5-min Rain = 0
KCH1 102054Z 29004KT 14/M00 A3032 RMK A01 T01421004  RH  037%=      5-min Rain = 0
KCH1 102055Z 30004KT 14/M01 A3032 RMK A01 T01421005  RH  036%=      5-min Rain = 0
KCH1 102056Z 30004KT 14/M00 A3032 RMK A01 T01411003  RH  037%=      5-min Rain = 0
KCH1 102057Z 28003KT 14/M00 A3032 RMK A01 T01411001  RH  038%=      5-min Rain = 0
KCH1 102058Z 28006KT 14/M00 A3032 RMK A01 T01421004  RH  037%=      5-min Rain = 0
KCH1 102059Z 29005KT 14/M01 A3032 RMK A01 T01411012  RH  035%=      5-min Rain = 0
KCH1 102100Z 28005KT 14/M01 A3031 RMK A01 T01401010  RH  035%=      5-min Rain = 0
KCH1 102101Z 27004KT 14/M01 A3031 RMK A01 T01401008  RH  036%=      5-min Rain = 0
KCH1 102102Z 29004KT 14/M01 A3031 RMK A01 T01401007  RH  036%=      5-min Rain = 0
KCH1 102103Z 26005KT 14/M00 A3031 RMK A01 T01411002  RH  038%=      5-min Rain = 0
KCH1 102104Z 27005KT 14/M01 A3031 RMK A01 T01411006  RH  036%=      5-min Rain = 0
KCH1 102105Z 27002KT 14/M01 A3031 RMK A01 T01401007  RH  036%=      5-min Rain = 0
KCH1 102106Z 30002KT 14/M01 A3031 RMK A01 T01391005  RH  037%=      5-min Rain = 0
KCH1 102107Z 31001KT 14/M01 A3031 RMK A01 T01401006  RH  037%=      5-min Rain = 0
KCH1 102108Z 33002KT 14/M01 A3031 RMK A01 T01401007  RH  036%=      5-min Rain = 0
KCH1 102109Z 32002KT 14/M01 A3031 RMK A01 T01401005  RH  037%=      5-min Rain = 0
KCH1 102110Z 28003KT 14/M01 A3031 RMK A01 T01411007  RH  036%=      5-min Rain = 0
KCH1 102111Z 27005KT 14/M01 A3031 RMK A01 T01401007  RH  036%=      5-min Rain = 0
KCH1 102112Z 30004KT 14/M00 A3031 RMK A01 T01391004  RH  037%=      5-min Rain = 0
KCH1 102113Z 33004KT 14/M01 A3031 RMK A01 T01401006  RH  037%=      5-min Rain = 0
KCH1 102114Z 32005KT 14/M01 A3031 RMK A01 T01401006  RH  037%=      5-min Rain = 0
KCH1 102115Z 32004KT 14/M01 A3031 RMK A01 T01391011  RH  036%=      5-min Rain = 0
KCH1 102116Z 34003KT 14/M01 A3031 RMK A01 T01381011  RH  036%=      5-min Rain = 0
KCH1 102117Z 35003KT 14/M01 A3031 RMK A01 T01381011  RH  036%=      5-min Rain = 0
KCH1 102118Z 34002KT 14/M01 A3031 RMK A01 T01381008  RH  037%=      5-min Rain = 0
KCH1 102119Z 34003KT 14/M01 A3031 RMK A01 T01391005  RH  037%=      5-min Rain = 0
KCH1 102120Z 32004KT 14/M01 A3031 RMK A01 T01401006  RH  037%=      5-min Rain = 0
KCH1 102121Z 31003KT 14/M00 A3031 RMK A01 T01391004  RH  037%=      5-min Rain = 0
KCH1 102122Z 28005KT 14/M01 A3031 RMK A01 T01411005  RH  037%=      5-min Rain = 0
KCH1 102123Z 28005KT 14/M01 A3031 RMK A01 T01401005  RH  037%=      5-min Rain = 0
KCH1 102124Z 30005KT 14/M01 A3031 RMK A01 T01381005  RH  037%=      5-min Rain = 0
KCH1 102125Z 31004KT 14/M01 A3031 RMK A01 T01381005  RH  037%=      5-min Rain = 0
KCH1 102126Z 32005KT 14/M00 A3031 RMK A01 T01381004  RH  038%=      5-min Rain = 0
KCH1 102127Z 31005KT 14/M01 A3031 RMK A01 T01381005  RH  037%=      5-min Rain = 0
KCH1 102128Z 30004KT 14/M01 A3031 RMK A01 T01381009  RH  036%=      5-min Rain = 0
KCH1 102129Z 29004KT 14/M01 A3031 RMK A01 T01371009  RH  037%=      5-min Rain = 0
KCH1 102130Z 28004KT 14/M01 A3031 RMK A01 T01371010  RH  036%=      5-min Rain = 0
KCH1 102131Z 27002KT 14/M02 A3031 RMK A01 T01371015  RH  035%=      5-min Rain = 0
KCH1 102132Z 31003KT 14/M01 A3031 RMK A01 T01381011  RH  036%=      5-min Rain = 0
KCH1 102133Z 32004KT 14/M01 A3031 RMK A01 T01391011  RH  035%=      5-min Rain = 0
KCH1 102134Z 30004KT 14/M01 A3031 RMK A01 T01391009  RH  036%=      5-min Rain = 0
KCH1 102135Z 28003KT 14/M01 A3031 RMK A01 T01391006  RH  037%=      5-min Rain = 0
KCH1 102136Z 29005KT 14/M01 A3031 RMK A01 T01401010  RH  036%=      5-min Rain = 0
KCH1 102137Z 29004KT 14/M02 A3031 RMK A01 T01401017  RH  034%=      5-min Rain = 0
KCH1 102138Z 28002KT 14/M02 A3031 RMK A01 T01391018  RH  034%=      5-min Rain = 0
KCH1 102139Z 30001KT 14/M02 A3031 RMK A01 T01391017  RH  034%=      5-min Rain = 0
KCH1 102140Z 30001KT 14/M02 A3031 RMK A01 T01391017  RH  034%=      5-min Rain = 0
KCH1 102141Z 35002KT 14/M02 A3031 RMK A01 T01391015  RH  035%=      5-min Rain = 0
KCH1 102142Z 30003KT 14/M01 A3031 RMK A01 T01401008  RH  036%=      5-min Rain = 0
KCH1 102143Z 35002KT 14/M01 A3031 RMK A01 T01411007  RH  036%=      5-min Rain = 0
KCH1 102144Z 35003KT 14/M01 A3031 RMK A01 T01421009  RH  035%=      5-min Rain = 0
KCH1 102145Z 36001KT 14/M01 A3031 RMK A01 T01411012  RH  035%=      5-min Rain = 0
KCH1 102146Z 35001KT 14/M01 A3031 RMK A01 T01411011  RH  035%=      5-min Rain = 0
KCH1 102147Z 33002KT 14/M01 A3031 RMK A01 T01421009  RH  035%=      5-min Rain = 0
KCH1 102148Z 28004KT 14/M01 A3031 RMK A01 T01431006  RH  036%=      5-min Rain = 0
KCH1 102149Z 26003KT 14/M00 A3031 RMK A01 T01431003  RH  037%=      5-min Rain = 0
KCH1 102150Z 24002KT 14/M01 A3031 RMK A01 T01421007  RH  036%=      5-min Rain = 0
KCH1 102151Z 25002KT 14/M00 A3031 RMK A01 T01411003  RH  037%=      5-min Rain = 0
KCH1 102152Z 27001KT 14/M00 A3031 RMK A01 T01421001  RH  037%=      5-min Rain = 0
KCH1 102153Z 28002KT 14/M00 A3031 RMK A01 T01441002  RH  037%=      5-min Rain = 0
KCH1 102154Z 29002KT 15/M00 A3031 RMK A01 T01451004  RH  036%=      5-min Rain = 0
KCH1 102155Z 30003KT 14/M01 A3031 RMK A01 T01441005  RH  036%=      5-min Rain = 0
KCH1 102156Z 29002KT 14/M00 A3031 RMK A01 T01441004  RH  036%=      5-min Rain = 0
KCH1 102157Z 28003KT 14/M01 A3031 RMK A01 T01441009  RH  035%=      5-min Rain = 0
KCH1 102158Z 27001KT 14/M01 A3031 RMK A01 T01421013  RH  034%=      5-min Rain = 0
KCH1 102159Z 30003KT 14/M01 A3031 RMK A01 T01421010  RH  035%=      5-min Rain = 0
KCH1 102200Z 31003KT 14/M01 A3031 RMK A01 T01421010  RH  035%=      5-min Rain = 0
KCH1 102201Z 30002KT 14/M01 A3031 RMK A01 T01411013  RH  035%=      5-min Rain = 0
KCH1 102202Z 28002KT 14/M01 A3031 RMK A01 T01401012  RH  035%=      5-min Rain = 0
KCH1 102203Z 28003KT 14/M01 A3031 RMK A01 T01401010  RH  036%=      5-min Rain = 0
KCH1 102204Z 27003KT 14/M01 A3031 RMK A01 T01401010  RH  036%=      5-min Rain = 0
KCH1 102205Z 26002KT 14/M01 A3031 RMK A01 T01401011  RH  035%=      5-min Rain = 0
KCH1 102206Z 27003KT 14/M01 A3031 RMK A01 T01401010  RH  036%=      5-min Rain = 0
KCH1 102207Z 27002KT 14/M01 A3031 RMK A01 T01401010  RH  035%=      5-min Rain = 0
KCH1 102208Z 26002KT 14/M01 A3031 RMK A01 T01401010  RH  035%=      5-min Rain = 0
KCH1 102209Z 27002KT 14/M01 A3031 RMK A01 T01411008  RH  036%=      5-min Rain = 0
KCH1 102210Z 25002KT 14/M01 A3031 RMK A01 T01421007  RH  036%=      5-min Rain = 0
KCH1 102211Z 29002KT 14/M01 A3031 RMK A01 T01431007  RH  036%=      5-min Rain = 0
KCH1 102212Z 29002KT 14/M01 A3031 RMK A01 T01431008  RH  035%=      5-min Rain = 0
KCH1 102213Z 27002KT 14/M01 A3031 RMK A01 T01431008  RH  036%=      5-min Rain = 0
KCH1 102214Z 29003KT 14/M01 A303 RMK A01 T01431007  RH  036%=      5-min Rain = 0
KCH1 102215Z 29002KT 14/M01 A3031 RMK A01 T01421009  RH  035%=      5-min Rain = 0
KCH1 102216Z 29001KT 14/M01 A3031 RMK A01 T01421009  RH  036%=      5-min Rain = 0
KCH1 102217Z 25000KT 14/M01 A303 RMK A01 T01421009  RH  035%=      5-min Rain = 0
KCH1 102218Z 29001KT 14/M01 A303 RMK A01 T01441008  RH  035%=      5-min Rain = 0
KCH1 102219Z 28001KT 15/M01 A303 RMK A01 T01451006  RH  036%=      5-min Rain = 0
KCH1 102220Z 31002KT 15/M01 A3031 RMK A01 T01451007  RH  035%=      5-min Rain = 0
KCH1 102221Z 30001KT 14/M01 A3031 RMK A01 T01431010  RH  035%=      5-min Rain = 0
KCH1 102222Z 27002KT 14/M01 A3031 RMK A01 T01411007  RH  036%=      5-min Rain = 0
KCH1 102223Z 27002KT 14/M01 A3031 RMK A01 T01401010  RH  036%=      5-min Rain = 0
KCH1 102224Z 28000KT 14/M01 A3031 RMK A01 T01391010  RH  036%=      5-min Rain = 0
KCH1 102225Z 26001KT 14/M01 A3031 RMK A01 T01381010  RH  036%=      5-min Rain = 0
KCH1 102226Z 26001KT 14/M01 A3031 RMK A01 T01391009  RH  036%=      5-min Rain = 0
KCH1 102227Z 27002KT 14/M01 A3031 RMK A01 T01401007  RH  036%=      5-min Rain = 0
KCH1 102228Z 30002KT 14/M01 A3031 RMK A01 T01391011  RH  035%=      5-min Rain = 0
KCH1 102229Z 32002KT 14/M01 A3031 RMK A01 T01391009  RH  036%=      5-min Rain = 0
KCH1 102230Z 31002KT 14/M01 A3031 RMK A01 T01381011  RH  036%=      5-min Rain = 0
KCH1 102231Z 31002KT 14/M01 A303 RMK A01 T01371008  RH  037%=      5-min Rain = 0
KCH1 102232Z 30001KT 14/M01 A303 RMK A01 T01371010  RH  036%=      5-min Rain = 0
KCH1 102233Z 30001KT 14/M01 A303 RMK A01 T01371009  RH  037%=      5-min Rain = 0
KCH1 102234Z 28000KT 14/M01 A303 RMK A01 T01371008  RH  037%=      5-min Rain = 0
KCH1 102235Z 31001KT 14/M01 A303 RMK A01 T01401009  RH  036%=      5-min Rain = 0
KCH1 102236Z 30001KT 14/M01 A303 RMK A01 T01401010  RH  035%=      5-min Rain = 0
KCH1 102237Z 29000KT 14/M01 A303 RMK A01 T01401011  RH  035%=      5-min Rain = 0
KCH1 102238Z 33000KT 14/M01 A303 RMK A01 T01421010  RH  035%=      5-min Rain = 0
KCH1 102239Z 26000KT 14/M01 A303 RMK A01 T01431007  RH  036%=      5-min Rain = 0
KCH1 102240Z 27001KT 14/M01 A3031 RMK A01 T01441008  RH  035%=      5-min Rain = 0
KCH1 102241Z 28000KT 14/M01 A3031 RMK A01 T01441012  RH  034%=      5-min Rain = 0
KCH1 102242Z 00000KT 14/M01 A3031 RMK A01 T01441014  RH  034%=      5-min Rain = 0
KCH1 102243Z 29001KT 14/M01 A3031 RMK A01 T01441013  RH  034%=      5-min Rain = 0
KCH1 102244Z 27001KT 15/M01 A3031 RMK A01 T01451014  RH  033%=      5-min Rain = 0
KCH1 102245Z 25002KT 15/M01 A3031 RMK A01 T01451011  RH  034%=      5-min Rain = 0
KCH1 102246Z 25002KT 15/M01 A3031 RMK A01 T01451013  RH  034%=      5-min Rain = 0
KCH1 102247Z 26001KT 14/M01 A3031 RMK A01 T01431010  RH  035%=      5-min Rain = 0
KCH1 102248Z 23002KT 14/M01 A3031 RMK A01 T01421011  RH  035%=      5-min Rain = 0
KCH1 102249Z 24001KT 14/M01 A3031 RMK A01 T01411008  RH  036%=      5-min Rain = 0
KCH1 102250Z 26002KT 14/M01 A3031 RMK A01 T01411007  RH  036%=      5-min Rain = 0
KCH1 102251Z 25002KT 14/M01 A3031 RMK A01 T01401006  RH  037%=      5-min Rain = 0
KCH1 102252Z 24003KT 14/M01 A3031 RMK A01 T01391006  RH  037%=      5-min Rain = 0
KCH1 102253Z 26002KT 14/M01 A3031 RMK A01 T01371007  RH  037%=      5-min Rain = 0
KCH1 102254Z 26002KT 14/M01 A3031 RMK A01 T01361007  RH  037%=      5-min Rain = 0
KCH1 102255Z 26001KT 14/M01 A3031 RMK A01 T01351007  RH  037%=      5-min Rain = 0
KCH1 102256Z 25001KT 14/M01 A3031 RMK A01 T01351006  RH  038%=      5-min Rain = 0
KCH1 102257Z 24001KT 14/M00 A3031 RMK A01 T01351004  RH  038%=      5-min Rain = 0
KCH1 102258Z 23001KT 14/M00 A3031 RMK A01 T01361003  RH  038%=      5-min Rain = 0
KCH1 102259Z 24001KT 14/M00 A3031 RMK A01 T01371004  RH  038%=      5-min Rain = 0
KCH1 102300Z 23001KT 14/M00 A3031 RMK A01 T01381002  RH  038%=      5-min Rain = 0
KCH1 102301Z 23001KT 14/M01 A3031 RMK A01 T01381007  RH  037%=      5-min Rain = 0
KCH1 102302Z 23001KT 14/M01 A3031 RMK A01 T01371008  RH  037%=      5-min Rain = 0
KCH1 102303Z 23001KT 14/M01 A3031 RMK A01 T01361009  RH  037%=      5-min Rain = 0
KCH1 102304Z 22001KT 14/M01 A3031 RMK A01 T01361011  RH  036%=      5-min Rain = 0
KCH1 102305Z 22001KT 14/M01 A3031 RMK A01 T01361009  RH  037%=      5-min Rain = 0
KCH1 102306Z 22001KT 14/M01 A3031 RMK A01 T01351009  RH  037%=      5-min Rain = 0
KCH1 102307Z 22001KT 14/M01 A3031 RMK A01 T01351010  RH  037%=      5-min Rain = 0
KCH1 102308Z 21001KT 13/M01 A3031 RMK A01 T01341010  RH  037%=      5-min Rain = 0
KCH1 102309Z 21001KT 13/M01 A3031 RMK A01 T01341009  RH  037%=      5-min Rain = 0
KCH1 102310Z 20001KT 13/M01 A3031 RMK A01 T01331008  RH  038%=      5-min Rain = 0
KCH1 102311Z 20001KT 13/M01 A3031 RMK A01 T01331010  RH  037%=      5-min Rain = 0
KCH1 102312Z 20001KT 13/M01 A3031 RMK A01 T01331008  RH  038%=      5-min Rain = 0
KCH1 102313Z 20001KT 13/M01 A3031 RMK A01 T01331006  RH  038%=      5-min Rain = 0
KCH1 102314Z 20001KT 13/M01 A3031 RMK A01 T01321006  RH  038%=      5-min Rain = 0
KCH1 102315Z 19001KT 13/M01 A3031 RMK A01 T01321006  RH  039%=      5-min Rain = 0
KCH1 102316Z 19001KT 13/M00 A3031 RMK A01 T01311003  RH  040%=      5-min Rain = 0
KCH1 102317Z 18001KT 13/M01 A3031 RMK A01 T01301005  RH  039%=      5-min Rain = 0
KCH1 102318Z 18001KT 13/M01 A3031 RMK A01 T01291006  RH  039%=      5-min Rain = 0
KCH1 102319Z 18001KT 13/M01 A3032 RMK A01 T01291007  RH  039%=      5-min Rain = 0
KCH1 102320Z 18002KT 13/M01 A3032 RMK A01 T01281008  RH  039%=      5-min Rain = 0
KCH1 102321Z 18002KT 13/M01 A3032 RMK A01 T01271007  RH  040%=      5-min Rain = 0
KCH1 102322Z 18001KT 13/M01 A3032 RMK A01 T01261006  RH  040%=      5-min Rain = 0
KCH1 102323Z 18001KT 13/M00 A3032 RMK A01 T01261004  RH  041%=      5-min Rain = 0
KCH1 102324Z 18001KT 13/M00 A3032 RMK A01 T01251003  RH  041%=      5-min Rain = 0
KCH1 102325Z 18001KT 12/M01 A3032 RMK A01 T01241005  RH  041%=      5-min Rain = 0
KCH1 102326Z 18001KT 12/M01 A3032 RMK A01 T01241007  RH  040%=      5-min Rain = 0
KCH1 102327Z 18001KT 12/M01 A3032 RMK A01 T01231008  RH  040%=      5-min Rain = 0
KCH1 102328Z 18001KT 12/M01 A3032 RMK A01 T01231008  RH  040%=      5-min Rain = 0
KCH1 102329Z 18001KT 12/M01 A3032 RMK A01 T01231008  RH  040%=      5-min Rain = 0
KCH1 102330Z 18001KT 12/M01 A3032 RMK A01 T01221009  RH  040%=      5-min Rain = 0
KCH1 102331Z 18001KT 12/M01 A3032 RMK A01 T01221010  RH  040%=      5-min Rain = 0
KCH1 102332Z 18001KT 12/M01 A3032 RMK A01 T01221010  RH  040%=      5-min Rain = 0
KCH1 102333Z 18000KT 12/M01 A3032 RMK A01 T01221010  RH  040%=      5-min Rain = 0
KCH1 102334Z 18000KT 12/M01 A3032 RMK A01 T01221011  RH  040%=      5-min Rain = 0
KCH1 102335Z 18000KT 12/M01 A3032 RMK A01 T01221012  RH  040%=      5-min Rain = 0
KCH1 102336Z 18001KT 12/M01 A3032 RMK A01 T01221012  RH  039%=      5-min Rain = 0
KCH1 102337Z 18001KT 12/M01 A3032 RMK A01 T01211012  RH  040%=      5-min Rain = 0
KCH1 102338Z 18001KT 12/M01 A3032 RMK A01 T01211012  RH  040%=      5-min Rain = 0
KCH1 102339Z 18001KT 12/M01 A3032 RMK A01 T01211012  RH  040%=      5-min Rain = 0
KCH1 102340Z 18001KT 12/M01 A3032 RMK A01 T01211012  RH  040%=      5-min Rain = 0
KCH1 102341Z 18002KT 12/M01 A3032 RMK A01 T01201012  RH  040%=      5-min Rain = 0
KCH1 102342Z 17002KT 12/M01 A3032 RMK A01 T01201011  RH  040%=      5-min Rain = 0
KCH1 102343Z 16003KT 12/M01 A3032 RMK A01 T01191010  RH  041%=      5-min Rain = 0
KCH1 102344Z 16003KT 12/M01 A3032 RMK A01 T01181010  RH  041%=      5-min Rain = 0
KCH1 102345Z 16003KT 12/M01 A3032 RMK A01 T01171009  RH  042%=      5-min Rain = 0
KCH1 102346Z 15003KT 12/M01 A3032 RMK A01 T01151009  RH  042%=      5-min Rain = 0
KCH1 102347Z 15003KT 12/M01 A3032 RMK A01 T01151009  RH  042%=      5-min Rain = 0
KCH1 102348Z 15003KT 11/M01 A3032 RMK A01 T01141008  RH  043%=      5-min Rain = 0
KCH1 102349Z 15003KT 11/M01 A3032 RMK A01 T01131008  RH  043%=      5-min Rain = 0
KCH1 102350Z 15003KT 11/M01 A3032 RMK A01 T01121007  RH  044%=      5-min Rain = 0
KCH1 102351Z 15003KT 11/M01 A3032 RMK A01 T01101006  RH  045%=      5-min Rain = 0
KCH1 102352Z 15003KT 11/M01 A3032 RMK A01 T01081006  RH  045%=      5-min Rain = 0
KCH1 102353Z 15003KT 11/M00 A3032 RMK A01 T01071004  RH  046%=      5-min Rain = 0
KCH1 102354Z 15003KT 11/M01 A3032 RMK A01 T01051005  RH  046%=      5-min Rain = 0
KCH1 102355Z 15003KT 11/M01 A3032 RMK A01 T01051006  RH  046%=      5-min Rain = 0
KCH1 102356Z 15003KT 10/M01 A3032 RMK A01 T01041006  RH  046%=      5-min Rain = 0
KCH1 102357Z 16003KT 10/M01 A3032 RMK A01 T01031007  RH  046%=      5-min Rain = 0
KCH1 102358Z 16003KT 10/M01 A3032 RMK A01 T01031007  RH  046%=      5-min Rain = 0
KCH1 102359Z 16003KT 10/M01 A3032 RMK A01 T01021007  RH  047%=      5-min Rain = 0
KCH1 110000Z 16003KT 10/M01 A3032 RMK A01 T01021007  RH  047%=      5-min Rain = 0
KCH1 110001Z 16003KT 10/M01 A3032 RMK A01 T01021006  RH  047%=      5-min Rain = 0
KCH1 110002Z 16003KT 10/M01 A3032 RMK A01 T01021007  RH  047%=      5-min Rain = 0
KCH1 110003Z 16004KT 10/M01 A3032 RMK A01 T01021007  RH  047%=      5-min Rain = 0
KCH1 110004Z 17003KT 10/M01 A3032 RMK A01 T01021007  RH  047%=      5-min Rain = 0
KCH1 110005Z 17003KT 10/M01 A3032 RMK A01 T01021007  RH  047%=      5-min Rain = 0
KCH1 110006Z 17003KT 10/M01 A3032 RMK A01 T01011007  RH  047%=      5-min Rain = 0
KCH1 110007Z 17003KT 10/M01 A3032 RMK A01 T01011006  RH  047%=      5-min Rain = 0
KCH1 110008Z 17004KT 10/M00 A3032 RMK A01 T01011004  RH  048%=      5-min Rain = 0
KCH1 110009Z 17004KT 10/M00 A3032 RMK A01 T01001003  RH  049%=      5-min Rain = 0
KCH1 110010Z 17004KT 10/M00 A3032 RMK A01 T00991003  RH  049%=      5-min Rain = 0
KCH1 110011Z 17004KT 10/M00 A3032 RMK A01 T00991002  RH  049%=      5-min Rain = 0
KCH1 110012Z 17004KT 10/M00 A3032 RMK A01 T00991002  RH  050%=      5-min Rain = 0
KCH1 110013Z 17004KT 10/M00 A3032 RMK A01 T00981002  RH  050%=      5-min Rain = 0
KCH1 110014Z 17004KT 10/M00 A3032 RMK A01 T00981002  RH  050%=      5-min Rain = 0
KCH1 110015Z 17003KT 10/M00 A3033 RMK A01 T00971001  RH  050%=      5-min Rain = 0
KCH1 110016Z 17003KT 10/M00 A3033 RMK A01 T00961001  RH  051%=      5-min Rain = 0
KCH1 110017Z 17003KT 10/M00 A3033 RMK A01 T00961001  RH  051%=      5-min Rain = 0
KCH1 110018Z 17004KT 09/00 A3032 RMK A01 T009400-0  RH  052%=      5-min Rain = 0
KCH1 110019Z 17004KT 09/00 A3032 RMK A01 T00940001  RH  052%=      5-min Rain = 0
KCH1 110020Z 17004KT 09/00 A3032 RMK A01 T00930001  RH  053%=      5-min Rain = 0
KCH1 110021Z 17004KT 09/00 A3032 RMK A01 T00920002  RH  053%=      5-min Rain = 0
KCH1 110022Z 17004KT 09/00 A3032 RMK A01 T00920002  RH  054%=      5-min Rain = 0
KCH1 110023Z 17004KT 09/00 A3032 RMK A01 T00910003  RH  054%=      5-min Rain = 0
KCH1 110024Z 17004KT 09/00 A3033 RMK A01 T00900003  RH  054%=      5-min Rain = 0
KCH1 110025Z 17004KT 09/00 A3033 RMK A01 T00900004  RH  055%=      5-min Rain = 0
KCH1 110026Z 17004KT 09/01 A3033 RMK A01 T00900005  RH  055%=      5-min Rain = 0
KCH1 110027Z 17004KT 09/00 A3033 RMK A01 T00900004  RH  055%=      5-min Rain = 0
KCH1 110028Z 18004KT 09/01 A3033 RMK A01 T00900005  RH  055%=      5-min Rain = 0
KCH1 110029Z 18004KT 09/00 A3033 RMK A01 T00890004  RH  055%=      5-min Rain = 0
KCH1 110030Z 18004KT 09/00 A3033 RMK A01 T00890004  RH  055%=      5-min Rain = 0
KCH1 110031Z 17004KT 09/00 A3033 RMK A01 T00880004  RH  056%=      5-min Rain = 0
KCH1 110032Z 17004KT 09/00 A3033 RMK A01 T00880004  RH  056%=      5-min Rain = 0
KCH1 110033Z 17004KT 09/01 A3033 RMK A01 T00870005  RH  056%=      5-min Rain = 0
KCH1 110034Z 18004KT 09/01 A3033 RMK A01 T00860005  RH  056%=      5-min Rain = 0
KCH1 110035Z 18004KT 09/01 A3033 RMK A01 T00860005  RH  057%=      5-min Rain = 0
KCH1 110036Z 18003KT 09/01 A3033 RMK A01 T00850005  RH  057%=      5-min Rain = 0
KCH1 110037Z 18004KT 08/01 A3033 RMK A01 T00840006  RH  058%=      5-min Rain = 0
KCH1 110038Z 18004KT 08/01 A3033 RMK A01 T00840005  RH  058%=      5-min Rain = 0
KCH1 110039Z 17003KT 08/01 A3033 RMK A01 T00820005  RH  058%=      5-min Rain = 0
KCH1 110040Z 17003KT 08/01 A3033 RMK A01 T00800006  RH  060%=      5-min Rain = 0
KCH1 110041Z 17003KT 08/01 A3033 RMK A01 T00760008  RH  062%=      5-min Rain = 0
KCH1 110042Z 16003KT 07/01 A3033 RMK A01 T00710007  RH  064%=      5-min Rain = 0
KCH1 110043Z 16003KT 07/01 A3033 RMK A01 T00660006  RH  066%=      5-min Rain = 0
KCH1 110044Z 16003KT 06/01 A3033 RMK A01 T00620006  RH  067%=      5-min Rain = 0
KCH1 110045Z 16003KT 06/01 A3033 RMK A01 T00610007  RH  068%=      5-min Rain = 0
KCH1 110046Z 16002KT 06/01 A3033 RMK A01 T00600005  RH  068%=      5-min Rain = 0
KCH1 110047Z 16003KT 06/00 A3033 RMK A01 T00590004  RH  068%=      5-min Rain = 0
KCH1 110048Z 16002KT 06/00 A3033 RMK A01 T00590004  RH  068%=      5-min Rain = 0
KCH1 110049Z 15002KT 06/01 A3033 RMK A01 T00590006  RH  069%=      5-min Rain = 0
KCH1 110050Z 15002KT 06/01 A3033 RMK A01 T00590008  RH  070%=      5-min Rain = 0
KCH1 110051Z 15002KT 06/01 A3033 RMK A01 T00590008  RH  070%=      5-min Rain = 0
KCH1 110052Z 14002KT 06/01 A3033 RMK A01 T00600009  RH  070%=      5-min Rain = 0
KCH1 110053Z 13002KT 06/01 A3033 RMK A01 T00620008  RH  069%=      5-min Rain = 0
KCH1 110054Z 14002KT 06/01 A3033 RMK A01 T00620006  RH  067%=      5-min Rain = 0
KCH1 110055Z 13002KT 06/01 A3033 RMK A01 T00620006  RH  067%=      5-min Rain = 0
KCH1 110056Z 13002KT 06/01 A3033 RMK A01 T00610006  RH  068%=      5-min Rain = 0
KCH1 110057Z 13002KT 06/01 A3033 RMK A01 T00590006  RH  069%=      5-min Rain = 0
KCH1 110058Z 12002KT 06/01 A3033 RMK A01 T00570005  RH  069%=      5-min Rain = 0
KCH1 110059Z 12002KT 06/01 A3033 RMK A01 T00560005  RH  070%=      5-min Rain = 0
KCH1 110100Z 13002KT 06/01 A3034 RMK A01 T00550005  RH  070%=      5-min Rain = 0
KCH1 110101Z 13002KT 05/01 A3034 RMK A01 T00540005  RH  071%=      5-min Rain = 0
KCH1 110102Z 14002KT 05/01 A3033 RMK A01 T00540006  RH  071%=      5-min Rain = 0
KCH1 110103Z 15003KT 05/01 A3033 RMK A01 T00530005  RH  071%=      5-min Rain = 0
KCH1 110104Z 15003KT 05/00 A3033 RMK A01 T00530004  RH  071%=      5-min Rain = 0
KCH1 110105Z 15003KT 05/00 A3033 RMK A01 T00530003  RH  070%=      5-min Rain = 0
KCH1 110106Z 15003KT 05/00 A3033 RMK A01 T00540004  RH  070%=      5-min Rain = 0
KCH1 110107Z 15003KT 06/01 A3033 RMK A01 T00560005  RH  070%=      5-min Rain = 0
KCH1 110108Z 15003KT 06/01 A3033 RMK A01 T00580005  RH  069%=      5-min Rain = 0
KCH1 110109Z 15003KT 06/01 A3033 RMK A01 T00600005  RH  068%=      5-min Rain = 0
KCH1 110110Z 15003KT 06/00 A3033 RMK A01 T00600004  RH  067%=      5-min Rain = 0
KCH1 110111Z 14003KT 06/00 A3033 RMK A01 T00590003  RH  067%=      5-min Rain = 0
KCH1 110112Z 14003KT 06/00 A3033 RMK A01 T00580002  RH  068%=      5-min Rain = 0
KCH1 110113Z 14003KT 06/00 A3033 RMK A01 T00560002  RH  068%=      5-min Rain = 0
KCH1 110114Z 13003KT 06/00 A3033 RMK A01 T00560003  RH  069%=      5-min Rain = 0
KCH1 110115Z 13003KT 06/00 A3033 RMK A01 T00550002  RH  069%=      5-min Rain = 0
KCH1 110116Z 13003KT 05/00 A3033 RMK A01 T00540003  RH  070%=      5-min Rain = 0
KCH1 110117Z 13003KT 05/00 A3033 RMK A01 T00530003  RH  071%=      5-min Rain = 0
KCH1 110118Z 13003KT 05/00 A3033 RMK A01 T00510003  RH  071%=      5-min Rain = 0
KCH1 110119Z 12003KT 05/00 A3033 RMK A01 T00510004  RH  072%=      5-min Rain = 0
KCH1 110120Z 12003KT 05/00 A3033 RMK A01 T00500004  RH  072%=      5-min Rain = 0
KCH1 110121Z 12003KT 05/00 A3033 RMK A01 T00490004  RH  072%=      5-min Rain = 0
KCH1 110122Z 12003KT 05/00 A3033 RMK A01 T00480004  RH  073%=      5-min Rain = 0
KCH1 110123Z 12003KT 05/00 A3033 RMK A01 T00480004  RH  073%=      5-min Rain = 0
KCH1 110124Z 12003KT 05/00 A3033 RMK A01 T00470004  RH  074%=      5-min Rain = 0
KCH1 110125Z 12003KT 05/00 A3033 RMK A01 T00460004  RH  074%=      5-min Rain = 0
KCH1 110126Z 12003KT 05/00 A3033 RMK A01 T00460004  RH  075%=      5-min Rain = 0
KCH1 110127Z 11003KT 05/01 A3033 RMK A01 T00460005  RH  075%=      5-min Rain = 0
KCH1 110128Z 10003KT 05/00 A3033 RMK A01 T00460004  RH  075%=      5-min Rain = 0
KCH1 110129Z 11003KT 05/00 A3033 RMK A01 T00450004  RH  074%=      5-min Rain = 0
KCH1 110130Z 11003KT 05/00 A3033 RMK A01 T00450003  RH  074%=      5-min Rain = 0
KCH1 110131Z 11003KT 05/00 A3033 RMK A01 T00450003  RH  074%=      5-min Rain = 0
KCH1 110132Z 11003KT 04/00 A3033 RMK A01 T00440003  RH  074%=      5-min Rain = 0
KCH1 110133Z 11003KT 04/00 A3033 RMK A01 T00440002  RH  074%=      5-min Rain = 0
KCH1 110134Z 11003KT 04/00 A3033 RMK A01 T00440002  RH  074%=      5-min Rain = 0
KCH1 110135Z 12003KT 04/00 A3033 RMK A01 T00440002  RH  074%=      5-min Rain = 0
KCH1 110136Z 13003KT 04/00 A3033 RMK A01 T00440001  RH  074%=      5-min Rain = 0
KCH1 110137Z 13003KT 04/00 A3033 RMK A01 T00440001  RH  074%=      5-min Rain = 0
KCH1 110138Z 13003KT 05/00 A3033 RMK A01 T00450001  RH  073%=      5-min Rain = 0
KCH1 110139Z 14003KT 05/00 A3033 RMK A01 T00460001  RH  072%=      5-min Rain = 0
KCH1 110140Z 14003KT 05/00 A3033 RMK A01 T00480001  RH  071%=      5-min Rain = 0
KCH1 110141Z 14002KT 05/00 A3033 RMK A01 T00490001  RH  071%=      5-min Rain = 0
KCH1 110142Z 13002KT 05/00 A3033 RMK A01 T00490000  RH  071%=      5-min Rain = 0
KCH1 110143Z 14002KT 05/00 A3033 RMK A01 T00490000  RH  071%=      5-min Rain = 0
KCH1 110144Z 15002KT 05/00 A3033 RMK A01 T00490000  RH  070%=      5-min Rain = 0
KCH1 110145Z 16002KT 05/00 A3033 RMK A01 T004900-0  RH  070%=      5-min Rain = 0
KCH1 110146Z 17002KT 05/00 A3033 RMK A01 T00490000  RH  071%=      5-min Rain = 0
KCH1 110147Z 17002KT 05/00 A3033 RMK A01 T00480001  RH  071%=      5-min Rain = 0
KCH1 110148Z 17003KT 05/00 A3033 RMK A01 T00470001  RH  072%=      5-min Rain = 0
KCH1 110149Z 17003KT 05/00 A3033 RMK A01 T00460001  RH  072%=      5-min Rain = 0
KCH1 110150Z 17003KT 05/00 A3033 RMK A01 T00460000  RH  072%=      5-min Rain = 0
KCH1 110151Z 17003KT 05/00 A3033 RMK A01 T00450001  RH  073%=      5-min Rain = 0
KCH1 110152Z 17003KT 04/00 A3033 RMK A01 T00440001  RH  073%=      5-min Rain = 0
KCH1 110153Z 16003KT 04/00 A3033 RMK A01 T00440001  RH  074%=      5-min Rain = 0
KCH1 110154Z 16003KT 04/00 A3033 RMK A01 T00440001  RH  073%=      5-min Rain = 0
KCH1 110155Z 17003KT 04/00 A3033 RMK A01 T004400-0  RH  073%=      5-min Rain = 0
KCH1 110156Z 17003KT 04/00 A3033 RMK A01 T004400-0  RH  073%=      5-min Rain = 0
KCH1 110157Z 17003KT 04/00 A3033 RMK A01 T004400-0  RH  073%=      5-min Rain = 0
KCH1 110158Z 17002KT 05/00 A3033 RMK A01 T00450000  RH  073%=      5-min Rain = 0
KCH1 110159Z 17002KT 05/00 A3033 RMK A01 T00460001  RH  072%=      5-min Rain = 0
KCH1 110200Z 17002KT 05/00 A3034 RMK A01 T00480001  RH  072%=      5-min Rain = 0
KCH1 110201Z 17002KT 05/00 A3034 RMK A01 T00490001  RH  071%=      5-min Rain = 0
KCH1 110202Z 17002KT 05/00 A3034 RMK A01 T00500001  RH  071%=      5-min Rain = 0
KCH1 110203Z 17002KT 05/00 A3034 RMK A01 T00500001  RH  071%=      5-min Rain = 0
KCH1 110204Z 18002KT 05/00 A3034 RMK A01 T00500002  RH  071%=      5-min Rain = 0
KCH1 110205Z 19002KT 05/00 A3034 RMK A01 T00510002  RH  071%=      5-min Rain = 0
KCH1 110206Z 20002KT 05/00 A3034 RMK A01 T00510003  RH  071%=      5-min Rain = 0
KCH1 110207Z 20003KT 05/00 A3034 RMK A01 T00500004  RH  072%=      5-min Rain = 0
KCH1 110208Z 20003KT 05/01 A3034 RMK A01 T00470005  RH  074%=      5-min Rain = 0
KCH1 110209Z 19003KT 05/01 A3034 RMK A01 T00450006  RH  076%=      5-min Rain = 0
KCH1 110210Z 19003KT 04/01 A3034 RMK A01 T00440006  RH  077%=      5-min Rain = 0
KCH1 110211Z 20003KT 04/01 A3034 RMK A01 T00430006  RH  077%=      5-min Rain = 0
KCH1 110212Z 22002KT 04/01 A3034 RMK A01 T00430007  RH  077%=      5-min Rain = 0
KCH1 110213Z 23002KT 04/01 A3034 RMK A01 T00420007  RH  078%=      5-min Rain = 0
KCH1 110214Z 22002KT 04/01 A3034 RMK A01 T00410007  RH  079%=      5-min Rain = 0
KCH1 110215Z 23002KT 04/01 A3034 RMK A01 T00410008  RH  079%=      5-min Rain = 0
KCH1 110216Z 24003KT 04/01 A3034 RMK A01 T00410008  RH  079%=      5-min Rain = 0
KCH1 110217Z 25002KT 04/01 A3034 RMK A01 T00420008  RH  079%=      5-min Rain = 0
KCH1 110218Z 24002KT 04/01 A3034 RMK A01 T00420007  RH  078%=      5-min Rain = 0
KCH1 110219Z 24002KT 04/01 A3034 RMK A01 T00420007  RH  078%=      5-min Rain = 0
KCH1 110220Z 24002KT 04/01 A3034 RMK A01 T00420007  RH  078%=      5-min Rain = 0
KCH1 110221Z 24003KT 04/01 A3034 RMK A01 T00430007  RH  077%=      5-min Rain = 0
KCH1 110222Z 25003KT 04/01 A3034 RMK A01 T00440007  RH  077%=      5-min Rain = 0
KCH1 110223Z 24002KT 05/01 A3034 RMK A01 T00450007  RH  076%=      5-min Rain = 0
KCH1 110224Z 24002KT 05/01 A3034 RMK A01 T00480007  RH  075%=      5-min Rain = 0
KCH1 110225Z 25002KT 05/01 A3034 RMK A01 T00490007  RH  074%=      5-min Rain = 0
KCH1 110226Z 24001KT 05/01 A3034 RMK A01 T00470005  RH  074%=      5-min Rain = 0
KCH1 110227Z 24001KT 04/00 A3034 RMK A01 T00430002  RH  075%=      5-min Rain = 0
KCH1 110228Z 24001KT 04/M00 A3034 RMK A01 T00381001  RH  076%=      5-min Rain = 0
KCH1 110229Z 24000KT 03/M00 A3034 RMK A01 T00331001  RH  078%=      5-min Rain = 0
KCH1 110230Z 00000KT 03/M00 A3034 RMK A01 T00301001  RH  080%=      5-min Rain = 0
KCH1 110231Z 24000KT 03/00 A3034 RMK A01 T002800-0  RH  082%=      5-min Rain = 0
KCH1 110232Z 24001KT 03/00 A3034 RMK A01 T00270000  RH  082%=      5-min Rain = 0
KCH1 110233Z 24001KT 03/00 A3034 RMK A01 T00270001  RH  083%=      5-min Rain = 0
KCH1 110234Z 24001KT 03/00 A3034 RMK A01 T00280002  RH  083%=      5-min Rain = 0
KCH1 110235Z 24001KT 03/00 A3034 RMK A01 T00290004  RH  083%=      5-min Rain = 0
KCH1 110236Z 23001KT 03/00 A3034 RMK A01 T00300002  RH  082%=      5-min Rain = 0
KCH1 110237Z 23002KT 03/00 A3034 RMK A01 T00310003  RH  082%=      5-min Rain = 0
KCH1 110238Z 22002KT 03/01 A3034 RMK A01 T00340005  RH  082%=      5-min Rain = 0
KCH1 110239Z 21002KT 04/01 A3034 RMK A01 T00390009  RH  081%=      5-min Rain = 0
KCH1 110240Z 21001KT 04/01 A3034 RMK A01 T00440011  RH  079%=      5-min Rain = 0
KCH1 110241Z 21001KT 05/01 A3034 RMK A01 T00490012  RH  077%=      5-min Rain = 0
KCH1 110242Z 21000KT 05/01 A3034 RMK A01 T00510011  RH  075%=      5-min Rain = 0
KCH1 110243Z 21000KT 05/01 A3034 RMK A01 T00510006  RH  073%=      5-min Rain = 0
KCH1 110244Z 00000KT 05/00 A3035 RMK A01 T00490003  RH  073%=      5-min Rain = 0
KCH1 110245Z 00000KT 04/M00 A3035 RMK A01 T00431002  RH  073%=      5-min Rain = 0
KCH1 110246Z 00000KT 04/M01 A3035 RMK A01 T00351005  RH  075%=      5-min Rain = 0
KCH1 110247Z 00000KT 03/M01 A3035 RMK A01 T00291006  RH  078%=      5-min Rain = 0
KCH1 110248Z 00000KT 03/M01 A3035 RMK A01 T00251007  RH  080%=      5-min Rain = 0
KCH1 110249Z 00000KT 02/M01 A3035 RMK A01 T00211008  RH  081%=      5-min Rain = 0
KCH1 110250Z 00000KT 02/M01 A3035 RMK A01 T00181008  RH  083%=      5-min Rain = 0
KCH1 110251Z 00000KT 02/M01 A3035 RMK A01 T00161006  RH  085%=      5-min Rain = 0
KCH1 110252Z 00000KT 02/M01 A3035 RMK A01 T00161006  RH  085%=      5-min Rain = 0
KCH1 110253Z 00000KT 02/M01 A3034 RMK A01 T00151007  RH  085%=      5-min Rain = 0
KCH1 110254Z 00000KT 01/M01 A3034 RMK A01 T00141008  RH  086%=      5-min Rain = 0
KCH1 110255Z 00000KT 01/M01 A3034 RMK A01 T00131007  RH  087%=      5-min Rain = 0
KCH1 110256Z 00000KT 01/M01 A3034 RMK A01 T00131005  RH  087%=      5-min Rain = 0
KCH1 110257Z 00000KT 01/M00 A3034 RMK A01 T00141004  RH  088%=      5-min Rain = 0
KCH1 110258Z 00000KT 02/M00 A3034 RMK A01 T00161002  RH  088%=      5-min Rain = 0
KCH1 110259Z 00000KT 02/00 A3034 RMK A01 T00190002  RH  088%=      5-min Rain = 0
KCH1 110300Z 00000KT 02/01 A3034 RMK A01 T00240005  RH  087%=      5-min Rain = 0
KCH1 110301Z 00000KT 03/01 A3034 RMK A01 T00280005  RH  085%=      5-min Rain = 0
KCH1 110302Z 00000KT 03/00 A3034 RMK A01 T00300004  RH  083%=      5-min Rain = 0
KCH1 110303Z 06001KT 03/00 A3034 RMK A01 T00310002  RH  081%=      5-min Rain = 0
KCH1 110304Z 05002KT 03/00 A3034 RMK A01 T00320000  RH  080%=      5-min Rain = 0
KCH1 110305Z 04002KT 03/M00 A3034 RMK A01 T00321001  RH  079%=      5-min Rain = 0
KCH1 110306Z 04002KT 03/M00 A3034 RMK A01 T00291004  RH  079%=      5-min Rain = 0
KCH1 110307Z 05002KT 03/M01 A3034 RMK A01 T00251007  RH  079%=      5-min Rain = 0
KCH1 110308Z 05002KT 02/M01 A3034 RMK A01 T00211009  RH  081%=      5-min Rain = 0
KCH1 110309Z 04002KT 02/M01 A3034 RMK A01 T00171009  RH  083%=      5-min Rain = 0
KCH1 110310Z 04001KT 02/M01 A3034 RMK A01 T00151010  RH  084%=      5-min Rain = 0
KCH1 110311Z 04001KT 01/M01 A3034 RMK A01 T00131010  RH  085%=      5-min Rain = 0
KCH1 110312Z 04001KT 01/M01 A3034 RMK A01 T00111011  RH  085%=      5-min Rain = 0
KCH1 110313Z 03001KT 01/M01 A3034 RMK A01 T00091011  RH  086%=      5-min Rain = 0
KCH1 110314Z 03001KT 01/M01 A3034 RMK A01 T00091011  RH  087%=      5-min Rain = 0
KCH1 110315Z 03001KT 01/M01 A3034 RMK A01 T00081010  RH  087%=      5-min Rain = 0
KCH1 110316Z 03001KT 01/M01 A3034 RMK A01 T00081009  RH  088%=      5-min Rain = 0
KCH1 110317Z 03001KT 01/M01 A3034 RMK A01 T00081008  RH  089%=      5-min Rain = 0
KCH1 110318Z 03001KT 01/M01 A3034 RMK A01 T00091007  RH  089%=      5-min Rain = 0
KCH1 110319Z 03002KT 01/M01 A3034 RMK A01 T00091006  RH  089%=      5-min Rain = 0
KCH1 110320Z 04002KT 01/M01 A3034 RMK A01 T00091007  RH  089%=      5-min Rain = 0
KCH1 110321Z 04002KT 01/M01 A3034 RMK A01 T00101006  RH  089%=      5-min Rain = 0
KCH1 110322Z 03002KT 01/M01 A3034 RMK A01 T00101006  RH  089%=      5-min Rain = 0
KCH1 110323Z 03002KT 01/00 A3034 RMK A01 T00140001  RH  091%=      5-min Rain = 0
KCH1 110324Z 02002KT 02/01 A3034 RMK A01 T00200006  RH  091%=      5-min Rain = 0
KCH1 110325Z 03002KT 03/01 A3034 RMK A01 T00260009  RH  089%=      5-min Rain = 0
KCH1 110326Z 03001KT 03/01 A3034 RMK A01 T00300009  RH  086%=      5-min Rain = 0
KCH1 110327Z 03001KT 03/01 A3034 RMK A01 T00320007  RH  083%=      5-min Rain = 0
KCH1 110328Z 03001KT 03/01 A3034 RMK A01 T00340006  RH  082%=      5-min Rain = 0
KCH1 110329Z 03001KT 03/00 A3034 RMK A01 T00340004  RH  081%=      5-min Rain = 0
KCH1 110330Z 03001KT 03/00 A3034 RMK A01 T00340003  RH  080%=      5-min Rain = 0
KCH1 110331Z 03001KT 03/00 A3034 RMK A01 T00340003  RH  080%=      5-min Rain = 0
KCH1 110332Z 03001KT 04/01 A3034 RMK A01 T00350005  RH  081%=      5-min Rain = 0
KCH1 110333Z 04002KT 04/01 A3034 RMK A01 T00370005  RH  080%=      5-min Rain = 0
KCH1 110334Z 04001KT 04/00 A3034 RMK A01 T00360004  RH  080%=      5-min Rain = 0
KCH1 110335Z 04002KT 04/01 A3034 RMK A01 T00380008  RH  080%=      5-min Rain = 0
KCH1 110336Z 04002KT 04/01 A3034 RMK A01 T00390006  RH  079%=      5-min Rain = 0
KCH1 110337Z 04001KT 04/01 A3034 RMK A01 T00390005  RH  079%=      5-min Rain = 0
KCH1 110338Z 04001KT 04/00 A3034 RMK A01 T00380004  RH  079%=      5-min Rain = 0
KCH1 110339Z 05001KT 04/00 A3034 RMK A01 T00370003  RH  078%=      5-min Rain = 0
KCH1 110340Z 06001KT 04/00 A3034 RMK A01 T00360003  RH  079%=      5-min Rain = 0
KCH1 110341Z 06001KT 04/00 A3034 RMK A01 T00360001  RH  078%=      5-min Rain = 0
KCH1 110342Z 06000KT 04/00 A3034 RMK A01 T00350002  RH  079%=      5-min Rain = 0
KCH1 110343Z 00000KT 04/00 A3034 RMK A01 T00360003  RH  079%=      5-min Rain = 0
KCH1 110344Z 00000KT 04/M00 A3034 RMK A01 T00351002  RH  077%=      5-min Rain = 0
KCH1 110345Z 00000KT 03/M00 A3034 RMK A01 T00331002  RH  077%=      5-min Rain = 0
KCH1 110346Z 00000KT 03/M00 A3034 RMK A01 T00321001  RH  079%=      5-min Rain = 0
KCH1 110347Z 00000KT 03/M00 A3034 RMK A01 T00301002  RH  079%=      5-min Rain = 0
KCH1 110348Z 00000KT 03/M00 A3034 RMK A01 T00281003  RH  080%=      5-min Rain = 0
KCH1 110349Z 00000KT 03/M00 A3034 RMK A01 T00271002  RH  082%=      5-min Rain = 0
KCH1 110350Z 00000KT 03/00 A3034 RMK A01 T002600-0  RH  083%=      5-min Rain = 0
KCH1 110351Z 00000KT 03/00 A3034 RMK A01 T00260001  RH  084%=      5-min Rain = 0
KCH1 110352Z 00000KT 03/00 A3034 RMK A01 T00250001  RH  084%=      5-min Rain = 0
KCH1 110353Z 22000KT 02/00 A3034 RMK A01 T002300-0  RH  085%=      5-min Rain = 0
KCH1 110354Z 23001KT 02/00 A3034 RMK A01 T00220001  RH  086%=      5-min Rain = 0
KCH1 110355Z 23001KT 02/00 A3034 RMK A01 T00210002  RH  087%=      5-min Rain = 0
KCH1 110356Z 24001KT 02/00 A3034 RMK A01 T00220004  RH  088%=      5-min Rain = 0
KCH1 110357Z 24001KT 02/01 A3034 RMK A01 T00240007  RH  089%=      5-min Rain = 0
KCH1 110358Z 25001KT 03/01 A3034 RMK A01 T00250008  RH  088%=      5-min Rain = 0
KCH1 110359Z 25001KT 03/01 A3034 RMK A01 T00280010  RH  088%=      5-min Rain = 0
KCH1 110400Z 25001KT 03/01 A3034 RMK A01 T00310014  RH  088%=      5-min Rain = 0
KCH1 110401Z 25002KT 03/01 A3034 RMK A01 T00330013  RH  087%=      5-min Rain = 0
KCH1 110402Z 26002KT 03/01 A3034 RMK A01 T00340012  RH  086%=      5-min Rain = 0
KCH1 110403Z 27002KT 03/01 A3034 RMK A01 T00330009  RH  085%=      5-min Rain = 0
KCH1 110404Z 28002KT 03/01 A3035 RMK A01 T00300006  RH  084%=      5-min Rain = 0
KCH1 110405Z 28002KT 03/01 A3035 RMK A01 T00290005  RH  084%=      5-min Rain = 0
KCH1 110406Z 28002KT 03/01 A3035 RMK A01 T00280007  RH  086%=      5-min Rain = 0
KCH1 110407Z 29002KT 03/01 A3035 RMK A01 T00280009  RH  087%=      5-min Rain = 0
KCH1 110408Z 30002KT 03/01 A3035 RMK A01 T00270007  RH  086%=      5-min Rain = 0
KCH1 110409Z 31001KT 03/01 A3035 RMK A01 T00250006  RH  087%=      5-min Rain = 0
KCH1 110410Z 31001KT 02/00 A3035 RMK A01 T00230003  RH  087%=      5-min Rain = 0
KCH1 110411Z 31001KT 02/00 A3035 RMK A01 T00220003  RH  087%=      5-min Rain = 0
KCH1 110412Z 31001KT 02/M00 A3035 RMK A01 T00181004  RH  085%=      5-min Rain = 0
KCH1 110413Z 31001KT 01/M01 A3034 RMK A01 T00141008  RH  085%=      5-min Rain = 0
KCH1 110414Z 31000KT 01/M01 A3034 RMK A01 T00111010  RH  086%=      5-min Rain = 0
KCH1 110415Z 31000KT 01/M01 A3034 RMK A01 T00091011  RH  087%=      5-min Rain = 0
KCH1 110416Z 00000KT 01/M01 A3034 RMK A01 T00071011  RH  087%=      5-min Rain = 0
KCH1 110417Z 00000KT 01/M01 A3034 RMK A01 T00061012  RH  088%=      5-min Rain = 0
KCH1 110418Z 00000KT 00/M01 A3034 RMK A01 T00041013  RH  088%=      5-min Rain = 0
KCH1 110419Z 00000KT 00/M01 A3035 RMK A01 T00031013  RH  089%=      5-min Rain = 0
KCH1 110420Z 00000KT 00/M01 A3035 RMK A01 T00031011  RH  090%=      5-min Rain = 0
KCH1 110421Z 00000KT 00/M01 A3035 RMK A01 T00031010  RH  091%=      5-min Rain = 0
KCH1 110422Z 00000KT 00/M01 A3035 RMK A01 T00031009  RH  091%=      5-min Rain = 0
KCH1 110423Z 00000KT 00/M01 A3035 RMK A01 T00041008  RH  092%=      5-min Rain = 0
KCH1 110424Z 00000KT 01/M00 A3035 RMK A01 T00051004  RH  093%=      5-min Rain = 0
KCH1 110425Z 31001KT 01/M00 A3035 RMK A01 T00071001  RH  094%=      5-min Rain = 0
KCH1 110426Z 30001KT 01/00 A3035 RMK A01 T00090001  RH  094%=      5-min Rain = 0
KCH1 110427Z 30001KT 01/00 A3035 RMK A01 T00110003  RH  095%=      5-min Rain = 0
KCH1 110428Z 30001KT 01/01 A3035 RMK A01 T00130005  RH  095%=      5-min Rain = 0
KCH1 110429Z 31001KT 02/01 A3035 RMK A01 T00150007  RH  095%=      5-min Rain = 0
KCH1 110430Z 32001KT 02/01 A3035 RMK A01 T00170009  RH  095%=      5-min Rain = 0
KCH1 110431Z 32001KT 02/01 A3035 RMK A01 T00170008  RH  093%=      5-min Rain = 0
KCH1 110432Z 32000KT 02/01 A3035 RMK A01 T00170006  RH  092%=      5-min Rain = 0
KCH1 110433Z 34001KT 02/00 A3035 RMK A01 T00160002  RH  090%=      5-min Rain = 0
KCH1 110434Z 35001KT 01/M00 A3035 RMK A01 T00141002  RH  089%=      5-min Rain = 0
KCH1 110435Z 35001KT 01/M00 A3035 RMK A01 T00121004  RH  089%=      5-min Rain = 0
KCH1 110436Z 34001KT 01/M01 A3035 RMK A01 T00111005  RH  089%=      5-min Rain = 0
KCH1 110437Z 34002KT 01/M01 A3035 RMK A01 T00081008  RH  089%=      5-min Rain = 0
KCH1 110438Z 34002KT 01/M01 A3034 RMK A01 T00061011  RH  089%=      5-min Rain = 0
KCH1 110439Z 35001KT 00/M01 A3035 RMK A01 T00041012  RH  089%=      5-min Rain = 0
KCH1 110440Z 01001KT 00/M01 A3034 RMK A01 T00021014  RH  089%=      5-min Rain = 0
KCH1 110441Z 01001KT 00/01 A3034 RMK A01 T00-00-14  RH  090%=      5-min Rain = 0
KCH1 110442Z 03001KT M00/M02 A3034 RMK A01 T10021015  RH  091%=      5-min Rain = 0
KCH1 110443Z 04001KT M00/M02 A3034 RMK A01 T10031015  RH  091%=      5-min Rain = 0
KCH1 110444Z 05001KT M00/M02 A3034 RMK A01 T10041015  RH  092%=      5-min Rain = 0
KCH1 110445Z 05002KT M00/M02 A3034 RMK A01 T10041015  RH  093%=      5-min Rain = 0
KCH1 110446Z 03002KT M00/M01 A3034 RMK A01 T10041013  RH  094%=      5-min Rain = 0
KCH1 110447Z 03003KT M00/M01 A3034 RMK A01 T10041012  RH  094%=      5-min Rain = 0
KCH1 110448Z 03003KT M00/M01 A3034 RMK A01 T10021009  RH  095%=      5-min Rain = 0
KCH1 110449Z 03002KT 00/01 A3034 RMK A01 T000000-6  RH  095%=      5-min Rain = 0
KCH1 110450Z 03002KT 00/M01 A3034 RMK A01 T00021005  RH  095%=      5-min Rain = 0
KCH1 110451Z 03002KT 00/M00 A3034 RMK A01 T00041003  RH  095%=      5-min Rain = 0
KCH1 110452Z 04002KT 01/M00 A3034 RMK A01 T00051002  RH  095%=      5-min Rain = 0
KCH1 110453Z 05002KT 01/M00 A3034 RMK A01 T00071001  RH  094%=      5-min Rain = 0
KCH1 110454Z 06002KT 01/00 A3034 RMK A01 T00090000  RH  094%=      5-min Rain = 0
KCH1 110455Z 06002KT 01/00 A3034 RMK A01 T00100000  RH  093%=      5-min Rain = 0
KCH1 110456Z 06002KT 01/M00 A3034 RMK A01 T00111001  RH  092%=      5-min Rain = 0
KCH1 110457Z 06002KT 01/M00 A3035 RMK A01 T00111002  RH  091%=      5-min Rain = 0
KCH1 110458Z 06002KT 01/M00 A3035 RMK A01 T00121002  RH  090%=      5-min Rain = 0
KCH1 110459Z 06002KT 01/M00 A3035 RMK A01 T00121004  RH  090%=      5-min Rain = 0
KCH1 110500Z 06001KT 01/M00 A3035 RMK A01 T00111004  RH  089%=      5-min Rain = 0
KCH1 110501Z 06002KT 01/M01 A3034 RMK A01 T00111005  RH  089%=      5-min Rain = 0
KCH1 110502Z 06002KT 01/M01 A3035 RMK A01 T00101006  RH  089%=      5-min Rain = 0
KCH1 110503Z 06002KT 01/M01 A3035 RMK A01 T00091007  RH  089%=      5-min Rain = 0
KCH1 110504Z 06002KT 01/M01 A3035 RMK A01 T00091006  RH  090%=      5-min Rain = 0
KCH1 110505Z 06002KT 01/M01 A3035 RMK A01 T00091005  RH  090%=      5-min Rain = 0
KCH1 110506Z 06002KT 01/M01 A3035 RMK A01 T00091006  RH  090%=      5-min Rain = 0
KCH1 110507Z 06001KT 01/M01 A3035 RMK A01 T00091006  RH  090%=      5-min Rain = 0
KCH1 110508Z 06001KT 01/M01 A3035 RMK A01 T00091006  RH  090%=      5-min Rain = 0
KCH1 110509Z 06001KT 01/M01 A3035 RMK A01 T00091005  RH  090%=      5-min Rain = 0
KCH1 110510Z 06000KT 01/M01 A3035 RMK A01 T00091005  RH  090%=      5-min Rain = 0
KCH1 110511Z 00000KT 01/M01 A3035 RMK A01 T00091005  RH  090%=      5-min Rain = 0
KCH1 110512Z 00000KT 01/M01 A3035 RMK A01 T00081005  RH  091%=      5-min Rain = 0
KCH1 110513Z 33000KT 01/M00 A3035 RMK A01 T00091003  RH  091%=      5-min Rain = 0
KCH1 110514Z 33000KT 01/M00 A3035 RMK A01 T00101001  RH  092%=      5-min Rain = 0
KCH1 110515Z 00000KT 01/M00 A3035 RMK A01 T00111001  RH  092%=      5-min Rain = 0
KCH1 110516Z 00000KT 01/M00 A3035 RMK A01 T00101003  RH  091%=      5-min Rain = 0
KCH1 110517Z 00000KT 01/M00 A3035 RMK A01 T00101003  RH  091%=      5-min Rain = 0
KCH1 110518Z 00000KT 01/M00 A3035 RMK A01 T00111001  RH  092%=      5-min Rain = 0
KCH1 110519Z 00000KT 01/00 A3035 RMK A01 T00110000  RH  092%=      5-min Rain = 0
KCH1 110520Z 33000KT 01/00 A3035 RMK A01 T00120001  RH  092%=      5-min Rain = 0
KCH1 110521Z 33000KT 01/00 A3035 RMK A01 T001200-0  RH  092%=      5-min Rain = 0
KCH1 110522Z 33000KT 01/M00 A3035 RMK A01 T00101003  RH  091%=      5-min Rain = 0
KCH1 110523Z 31001KT 01/M00 A3034 RMK A01 T00091003  RH  092%=      5-min Rain = 0
KCH1 110524Z 31002KT 01/M00 A3034 RMK A01 T00091002  RH  092%=      5-min Rain = 0
KCH1 110525Z 31001KT 01/M00 A3034 RMK A01 T00071003  RH  093%=      5-min Rain = 0
KCH1 110526Z 31001KT 01/M00 A3034 RMK A01 T00081001  RH  094%=      5-min Rain = 0
KCH1 110527Z 32001KT 01/00 A3034 RMK A01 T00090002  RH  095%=      5-min Rain = 0
KCH1 110528Z 32000KT 01/00 A3034 RMK A01 T00080000  RH  094%=      5-min Rain = 0
KCH1 110529Z 33001KT 01/M00 A3034 RMK A01 T00061004  RH  093%=      5-min Rain = 0
KCH1 110530Z 32002KT 01/M00 A3034 RMK A01 T00071002  RH  094%=      5-min Rain = 0
KCH1 110531Z 32002KT 01/01 A3034 RMK A01 T00100005  RH  096%=      5-min Rain = 0
KCH1 110532Z 32002KT 01/01 A3034 RMK A01 T00120007  RH  096%=      5-min Rain = 0
KCH1 110533Z 32002KT 01/01 A3034 RMK A01 T00140009  RH  097%=      5-min Rain = 0
KCH1 110534Z 31002KT 02/01 A3034 RMK A01 T00160012  RH  097%=      5-min Rain = 0
KCH1 110535Z 31002KT 02/01 A3034 RMK A01 T00170013  RH  097%=      5-min Rain = 0
KCH1 110536Z 32002KT 02/01 A3034 RMK A01 T00170012  RH  096%=      5-min Rain = 0
KCH1 110537Z 32001KT 02/01 A3034 RMK A01 T00160010  RH  096%=      5-min Rain = 0
KCH1 110538Z 32001KT 02/01 A3034 RMK A01 T00170011  RH  096%=      5-min Rain = 0
KCH1 110539Z 33000KT 02/01 A3034 RMK A01 T00160009  RH  095%=      5-min Rain = 0
KCH1 110540Z 00000KT 01/00 A3034 RMK A01 T00120002  RH  093%=      5-min Rain = 0
KCH1 110541Z 33001KT 01/M00 A3034 RMK A01 T00081004  RH  092%=      5-min Rain = 0
KCH1 110542Z 33001KT 01/M01 A3034 RMK A01 T00061006  RH  092%=      5-min Rain = 0
KCH1 110543Z 33001KT 01/M01 A3034 RMK A01 T00051007  RH  092%=      5-min Rain = 0
KCH1 110544Z 33001KT 00/M01 A3034 RMK A01 T00041007  RH  092%=      5-min Rain = 0
KCH1 110545Z 00000KT 00/M01 A3034 RMK A01 T00041006  RH  093%=      5-min Rain = 0
KCH1 110546Z 00000KT 00/M01 A3034 RMK A01 T00031007  RH  093%=      5-min Rain = 0
KCH1 110547Z 00000KT 00/M01 A3034 RMK A01 T00021008  RH  093%=      5-min Rain = 0
KCH1 110548Z 00000KT 00/01 A3034 RMK A01 T00-00-11  RH  093%=      5-min Rain = 0
KCH1 110549Z 01000KT M00/M02 A3034 RMK A01 T10041015  RH  092%=      5-min Rain = 0
KCH1 110550Z 03000KT M00/M01 A3034 RMK A01 T10041014  RH  093%=      5-min Rain = 0
KCH1 110551Z 03001KT M00/M01 A3034 RMK A01 T10031011  RH  094%=      5-min Rain = 0
KCH1 110552Z 04001KT M00/M01 A3034 RMK A01 T10031010  RH  095%=      5-min Rain = 0
KCH1 110553Z 04000KT M00/M01 A3034 RMK A01 T10031011  RH  095%=      5-min Rain = 0
KCH1 110554Z 04001KT M00/M01 A3034 RMK A01 T10041012  RH  094%=      5-min Rain = 0
KCH1 110555Z 04001KT M00/M01 A3034 RMK A01 T10041011  RH  095%=      5-min Rain = 0
KCH1 110556Z 04001KT 00/M00 A3034 RMK A01 T00011004  RH  097%=      5-min Rain = 0
KCH1 110557Z 05001KT 01/00 A3034 RMK A01 T00050001  RH  098%=      5-min Rain = 0
KCH1 110558Z 04002KT 01/00 A3034 RMK A01 T00060003  RH  098%=      5-min Rain = 0
KCH1 110559Z 04001KT 01/00 A3034 RMK A01 T00050001  RH  097%=      5-min Rain = 0

Page generated in 0.0351 seconds.